Observation data for Tahoka on 09/12/2017      Previous  Date  Next       Current Mesonet Observations  Soil Data  Daily Summary Page  Observations in Plain Language
KTAS 120500Z 08004KT 19/11 A3013 RMK A01 T01880105  RH  059%=      5-min Rain = 0
KTAS 120501Z 08005KT 19/11 A3013 RMK A01 T01880106  RH  059%=      5-min Rain = 0
KTAS 120502Z 08005KT 19/11 A3012 RMK A01 T01880106  RH  059%=      5-min Rain = 0
KTAS 120503Z 08004KT 19/11 A3012 RMK A01 T01870106  RH  059%=      5-min Rain = 0
KTAS 120504Z 08004KT 19/11 A3013 RMK A01 T01860106  RH  060%=      5-min Rain = 0
KTAS 120505Z 08005KT 19/11 A3013 RMK A01 T01850107  RH  060%=      5-min Rain = 0
KTAS 120506Z 08005KT 19/11 A3013 RMK A01 T01850107  RH  061%=      5-min Rain = 0
KTAS 120507Z 09005KT 18/11 A3013 RMK A01 T01840108  RH  061%=      5-min Rain = 0
KTAS 120508Z 09005KT 18/11 A3013 RMK A01 T01840108  RH  061%=      5-min Rain = 0
KTAS 120509Z 09005KT 18/11 A3013 RMK A01 T01840107  RH  061%=      5-min Rain = 0
KTAS 120510Z 09005KT 18/11 A3013 RMK A01 T01830107  RH  061%=      5-min Rain = 0
KTAS 120511Z 09005KT 18/11 A3013 RMK A01 T01820106  RH  061%=      5-min Rain = 0
KTAS 120512Z 10004KT 18/11 A3013 RMK A01 T01810105  RH  061%=      5-min Rain = 0
KTAS 120513Z 10004KT 18/11 A3013 RMK A01 T01800105  RH  061%=      5-min Rain = 0
KTAS 120514Z 10004KT 18/10 A3013 RMK A01 T01800104  RH  061%=      5-min Rain = 0
KTAS 120515Z 10004KT 18/10 A3013 RMK A01 T01790104  RH  061%=      5-min Rain = 0
KTAS 120516Z 11004KT 18/10 A3013 RMK A01 T01790103  RH  061%=      5-min Rain = 0
KTAS 120517Z 11005KT 18/10 A3013 RMK A01 T01780103  RH  061%=      5-min Rain = 0
KTAS 120518Z 11005KT 18/10 A3013 RMK A01 T01780103  RH  061%=      5-min Rain = 0
KTAS 120519Z 11005KT 18/10 A3013 RMK A01 T01770103  RH  062%=      5-min Rain = 0
KTAS 120520Z 11005KT 18/10 A3013 RMK A01 T01770102  RH  062%=      5-min Rain = 0
KTAS 120521Z 11005KT 18/10 A3013 RMK A01 T01770102  RH  062%=      5-min Rain = 0
KTAS 120522Z 11005KT 18/10 A3013 RMK A01 T01760102  RH  062%=      5-min Rain = 0
KTAS 120523Z 11005KT 18/10 A3013 RMK A01 T01760101  RH  062%=      5-min Rain = 0
KTAS 120524Z 11005KT 18/10 A3013 RMK A01 T01750101  RH  062%=      5-min Rain = 0
KTAS 120525Z 11006KT 18/10 A3013 RMK A01 T01750101  RH  062%=      5-min Rain = 0
KTAS 120526Z 11006KT 17/10 A3013 RMK A01 T01740100  RH  062%=      5-min Rain = 0
KTAS 120527Z 11006KT 17/10 A3013 RMK A01 T01740099  RH  062%=      5-min Rain = 0
KTAS 120528Z 11006KT 17/10 A3013 RMK A01 T01730099  RH  062%=      5-min Rain = 0
KTAS 120529Z 11006KT 17/10 A3013 RMK A01 T01730098  RH  062%=      5-min Rain = 0
KTAS 120530Z 11007KT 17/10 A3012 RMK A01 T01720098  RH  062%=      5-min Rain = 0
KTAS 120531Z 11006KT 17/10 A3012 RMK A01 T01720097  RH  061%=      5-min Rain = 0
KTAS 120532Z 11006KT 17/10 A3012 RMK A01 T01720097  RH  061%=      5-min Rain = 0
KTAS 120533Z 11006KT 17/10 A3012 RMK A01 T01730097  RH  061%=      5-min Rain = 0
KTAS 120534Z 11006KT 17/10 A3012 RMK A01 T01730097  RH  061%=      5-min Rain = 0
KTAS 120535Z 11006KT 17/10 A3012 RMK A01 T01740096  RH  060%=      5-min Rain = 0
KTAS 120536Z 11006KT 17/10 A3012 RMK A01 T01740096  RH  060%=      5-min Rain = 0
KTAS 120537Z 11006KT 17/10 A3012 RMK A01 T01740096  RH  060%=      5-min Rain = 0
KTAS 120538Z 11006KT 18/10 A3012 RMK A01 T01750096  RH  060%=      5-min Rain = 0
KTAS 120539Z 11006KT 18/10 A3012 RMK A01 T01750096  RH  060%=      5-min Rain = 0
KTAS 120540Z 11006KT 18/10 A3012 RMK A01 T01750096  RH  059%=      5-min Rain = 0
KTAS 120541Z 11006KT 18/10 A3012 RMK A01 T01760095  RH  059%=      5-min Rain = 0
KTAS 120542Z 11006KT 18/10 A3012 RMK A01 T01750095  RH  059%=      5-min Rain = 0
KTAS 120543Z 11006KT 18/10 A3012 RMK A01 T01750095  RH  060%=      5-min Rain = 0
KTAS 120544Z 11006KT 18/10 A3012 RMK A01 T01750095  RH  060%=      5-min Rain = 0
KTAS 120545Z 11006KT 18/10 A3012 RMK A01 T01750095  RH  059%=      5-min Rain = 0
KTAS 120546Z 11006KT 18/10 A3012 RMK A01 T01750095  RH  059%=      5-min Rain = 0
KTAS 120547Z 11006KT 18/10 A3012 RMK A01 T01750095  RH  059%=      5-min Rain = 0
KTAS 120548Z 11006KT 17/10 A3012 RMK A01 T01740095  RH  059%=      5-min Rain = 0
KTAS 120549Z 11007KT 17/10 A3012 RMK A01 T01740095  RH  059%=      5-min Rain = 0
KTAS 120550Z 11006KT 17/10 A3012 RMK A01 T01740095  RH  059%=      5-min Rain = 0
KTAS 120551Z 11006KT 17/10 A3012 RMK A01 T01740095  RH  059%=      5-min Rain = 0
KTAS 120552Z 11006KT 17/09 A3012 RMK A01 T01740094  RH  059%=      5-min Rain = 0
KTAS 120553Z 11006KT 17/10 A3012 RMK A01 T01740095  RH  060%=      5-min Rain = 0
KTAS 120554Z 11006KT 17/10 A3012 RMK A01 T01730095  RH  060%=      5-min Rain = 0
KTAS 120555Z 11006KT 17/10 A3012 RMK A01 T01730095  RH  060%=      5-min Rain = 0
KTAS 120556Z 11006KT 17/09 A3012 RMK A01 T01740094  RH  060%=      5-min Rain = 0
KTAS 120557Z 11006KT 17/10 A3012 RMK A01 T01740095  RH  060%=      5-min Rain = 0
KTAS 120558Z 11006KT 17/10 A3012 RMK A01 T01730095  RH  060%=      5-min Rain = 0
KTAS 120559Z 12006KT 17/09 A3012 RMK A01 T01730094  RH  060%=      5-min Rain = 0
KTAS 120600Z 12006KT 17/09 A3012 RMK A01 T01730094  RH  060%=      5-min Rain = 0
KTAS 120601Z 12006KT 17/09 A3012 RMK A01 T01730094  RH  060%=      5-min Rain = 0
KTAS 120602Z 12006KT 17/09 A3012 RMK A01 T01730094  RH  060%=      5-min Rain = 0
KTAS 120603Z 11006KT 17/09 A3012 RMK A01 T01720094  RH  060%=      5-min Rain = 0
KTAS 120604Z 11006KT 17/09 A3012 RMK A01 T01720094  RH  060%=      5-min Rain = 0
KTAS 120605Z 11006KT 17/09 A3012 RMK A01 T01720094  RH  060%=      5-min Rain = 0
KTAS 120606Z 12006KT 17/09 A3012 RMK A01 T01710094  RH  060%=      5-min Rain = 0
KTAS 120607Z 12006KT 17/09 A3012 RMK A01 T01710094  RH  060%=      5-min Rain = 0
KTAS 120608Z 12006KT 17/09 A3012 RMK A01 T01710094  RH  060%=      5-min Rain = 0
KTAS 120609Z 12006KT 17/09 A3012 RMK A01 T01710093  RH  060%=      5-min Rain = 0
KTAS 120610Z 12006KT 17/09 A3011 RMK A01 T01720093  RH  060%=      5-min Rain = 0
KTAS 120611Z 12006KT 17/09 A3011 RMK A01 T01720093  RH  060%=      5-min Rain = 0
KTAS 120612Z 12006KT 17/09 A3011 RMK A01 T01720093  RH  059%=      5-min Rain = 0
KTAS 120613Z 12006KT 17/09 A3011 RMK A01 T01720092  RH  059%=      5-min Rain = 0
KTAS 120614Z 12006KT 17/09 A3011 RMK A01 T01730092  RH  059%=      5-min Rain = 0
KTAS 120615Z 12006KT 17/09 A3011 RMK A01 T01730092  RH  059%=      5-min Rain = 0
KTAS 120616Z 12006KT 17/09 A3011 RMK A01 T01730092  RH  059%=      5-min Rain = 0
KTAS 120617Z 12006KT 17/09 A3011 RMK A01 T01730092  RH  059%=      5-min Rain = 0
KTAS 120618Z 12006KT 17/09 A3011 RMK A01 T01730092  RH  059%=      5-min Rain = 0
KTAS 120619Z 12006KT 17/09 A3011 RMK A01 T01730092  RH  059%=      5-min Rain = 0
KTAS 120620Z 12006KT 17/09 A3011 RMK A01 T01730091  RH  059%=      5-min Rain = 0
KTAS 120621Z 12006KT 17/09 A3011 RMK A01 T01730091  RH  059%=      5-min Rain = 0
KTAS 120622Z 12006KT 17/09 A3011 RMK A01 T01730091  RH  058%=      5-min Rain = 0
KTAS 120623Z 12006KT 17/09 A3011 RMK A01 T01740091  RH  058%=      5-min Rain = 0
KTAS 120624Z 12006KT 17/09 A3011 RMK A01 T01740090  RH  058%=      5-min Rain = 0
KTAS 120625Z 12006KT 17/09 A3011 RMK A01 T01740090  RH  058%=      5-min Rain = 0
KTAS 120626Z 12006KT 17/09 A3011 RMK A01 T01740090  RH  058%=      5-min Rain = 0
KTAS 120627Z 12006KT 17/09 A3011 RMK A01 T01740090  RH  058%=      5-min Rain = 0
KTAS 120628Z 12005KT 17/09 A3011 RMK A01 T01740090  RH  058%=      5-min Rain = 0
KTAS 120629Z 12005KT 17/09 A3011 RMK A01 T01740090  RH  058%=      5-min Rain = 0
KTAS 120630Z 13005KT 17/09 A3011 RMK A01 T01740090  RH  058%=      5-min Rain = 0
KTAS 120631Z 13005KT 17/09 A3011 RMK A01 T01740090  RH  058%=      5-min Rain = 0
KTAS 120632Z 13005KT 17/09 A3011 RMK A01 T01730090  RH  058%=      5-min Rain = 0
KTAS 120633Z 13005KT 17/09 A3011 RMK A01 T01740090  RH  058%=      5-min Rain = 0
KTAS 120634Z 13005KT 17/09 A3011 RMK A01 T01730090  RH  058%=      5-min Rain = 0
KTAS 120635Z 13005KT 17/09 A3011 RMK A01 T01730090  RH  058%=      5-min Rain = 0
KTAS 120636Z 13005KT 17/09 A3011 RMK A01 T01730090  RH  058%=      5-min Rain = 0
KTAS 120637Z 13005KT 17/09 A3011 RMK A01 T01730090  RH  058%=      5-min Rain = 0
KTAS 120638Z 13005KT 17/09 A3011 RMK A01 T01730090  RH  058%=      5-min Rain = 0
KTAS 120639Z 13005KT 17/09 A3011 RMK A01 T01730090  RH  058%=      5-min Rain = 0
KTAS 120640Z 14005KT 17/09 A3011 RMK A01 T01730090  RH  058%=      5-min Rain = 0
KTAS 120641Z 14005KT 17/09 A3011 RMK A01 T01730089  RH  058%=      5-min Rain = 0
KTAS 120642Z 14005KT 17/09 A3011 RMK A01 T01730089  RH  058%=      5-min Rain = 0
KTAS 120643Z 14005KT 17/09 A3011 RMK A01 T01720089  RH  058%=      5-min Rain = 0
KTAS 120644Z 14005KT 17/09 A3011 RMK A01 T01720089  RH  058%=      5-min Rain = 0
KTAS 120645Z 14005KT 17/09 A3011 RMK A01 T01720089  RH  058%=      5-min Rain = 0
KTAS 120646Z 14005KT 17/09 A3011 RMK A01 T01710089  RH  059%=      5-min Rain = 0
KTAS 120647Z 14005KT 17/09 A3011 RMK A01 T01710089  RH  059%=      5-min Rain = 0
KTAS 120648Z 14006KT 17/09 A3011 RMK A01 T01710089  RH  059%=      5-min Rain = 0
KTAS 120649Z 14006KT 17/09 A3011 RMK A01 T01710090  RH  059%=      5-min Rain = 0
KTAS 120650Z 14006KT 17/09 A3011 RMK A01 T01710090  RH  059%=      5-min Rain = 0
KTAS 120651Z 14006KT 17/09 A3011 RMK A01 T01710090  RH  059%=      5-min Rain = 0
KTAS 120652Z 14005KT 17/09 A3011 RMK A01 T01710090  RH  059%=      5-min Rain = 0
KTAS 120653Z 14006KT 17/09 A3011 RMK A01 T01710090  RH  059%=      5-min Rain = 0
KTAS 120654Z 14006KT 17/09 A3011 RMK A01 T01710090  RH  059%=      5-min Rain = 0
KTAS 120655Z 14006KT 17/09 A3011 RMK A01 T01710089  RH  059%=      5-min Rain = 0
KTAS 120656Z 14005KT 17/09 A3011 RMK A01 T01710089  RH  059%=      5-min Rain = 0
KTAS 120657Z 14005KT 17/09 A3011 RMK A01 T01710089  RH  059%=      5-min Rain = 0
KTAS 120658Z 14005KT 17/09 A3011 RMK A01 T01710089  RH  059%=      5-min Rain = 0
KTAS 120659Z 14005KT 17/09 A301 RMK A01 T01710089  RH  058%=      5-min Rain = 0
KTAS 120700Z 14005KT 17/09 A301 RMK A01 T01710089  RH  058%=      5-min Rain = 0
KTAS 120701Z 14005KT 17/09 A301 RMK A01 T01710088  RH  058%=      5-min Rain = 0
KTAS 120702Z 14005KT 17/09 A301 RMK A01 T01710088  RH  058%=      5-min Rain = 0
KTAS 120703Z 14005KT 17/09 A301 RMK A01 T01700089  RH  059%=      5-min Rain = 0
KTAS 120704Z 14005KT 17/09 A301 RMK A01 T01700089  RH  059%=      5-min Rain = 0
KTAS 120705Z 14005KT 17/09 A301 RMK A01 T01690089  RH  059%=      5-min Rain = 0
KTAS 120706Z 14005KT 17/09 A301 RMK A01 T01680089  RH  059%=      5-min Rain = 0
KTAS 120707Z 15004KT 17/09 A301 RMK A01 T01670089  RH  060%=      5-min Rain = 0
KTAS 120708Z 15004KT 17/09 A301 RMK A01 T01670089  RH  060%=      5-min Rain = 0
KTAS 120709Z 14004KT 17/09 A301 RMK A01 T01670088  RH  060%=      5-min Rain = 0
KTAS 120710Z 15004KT 17/09 A301 RMK A01 T01670088  RH  060%=      5-min Rain = 0
KTAS 120711Z 15005KT 17/09 A301 RMK A01 T01660088  RH  060%=      5-min Rain = 0
KTAS 120712Z 15005KT 17/09 A301 RMK A01 T01670088  RH  060%=      5-min Rain = 0
KTAS 120713Z 15005KT 17/09 A301 RMK A01 T01670089  RH  060%=      5-min Rain = 0
KTAS 120714Z 15005KT 17/09 A301 RMK A01 T01670089  RH  060%=      5-min Rain = 0
KTAS 120715Z 15005KT 17/09 A301 RMK A01 T01660089  RH  060%=      5-min Rain = 0
KTAS 120716Z 15005KT 17/09 A301 RMK A01 T01660089  RH  060%=      5-min Rain = 0
KTAS 120717Z 15005KT 17/09 A301 RMK A01 T01660089  RH  061%=      5-min Rain = 0
KTAS 120718Z 15005KT 17/09 A301 RMK A01 T01650089  RH  061%=      5-min Rain = 0
KTAS 120719Z 15005KT 17/09 A301 RMK A01 T01650089  RH  061%=      5-min Rain = 0
KTAS 120720Z 15005KT 17/09 A301 RMK A01 T01650089  RH  061%=      5-min Rain = 0
KTAS 120721Z 14005KT 16/09 A301 RMK A01 T01640089  RH  061%=      5-min Rain = 0
KTAS 120722Z 14005KT 16/09 A301 RMK A01 T01630089  RH  061%=      5-min Rain = 0
KTAS 120723Z 15005KT 16/09 A301 RMK A01 T01630088  RH  061%=      5-min Rain = 0
KTAS 120724Z 15005KT 16/09 A301 RMK A01 T01620088  RH  061%=      5-min Rain = 0
KTAS 120725Z 15004KT 16/09 A301 RMK A01 T01630088  RH  061%=      5-min Rain = 0
KTAS 120726Z 15004KT 16/09 A301 RMK A01 T01630088  RH  061%=      5-min Rain = 0
KTAS 120727Z 15004KT 16/09 A301 RMK A01 T01640088  RH  061%=      5-min Rain = 0
KTAS 120728Z 15004KT 17/09 A301 RMK A01 T01650088  RH  060%=      5-min Rain = 0
KTAS 120729Z 15004KT 17/09 A301 RMK A01 T01650088  RH  060%=      5-min Rain = 0
KTAS 120730Z 15005KT 17/09 A301 RMK A01 T01650089  RH  060%=      5-min Rain = 0
KTAS 120731Z 14005KT 17/09 A301 RMK A01 T01660089  RH  060%=      5-min Rain = 0
KTAS 120732Z 15005KT 17/09 A301 RMK A01 T01660089  RH  060%=      5-min Rain = 0
KTAS 120733Z 15005KT 17/09 A301 RMK A01 T01660089  RH  060%=      5-min Rain = 0
KTAS 120734Z 15005KT 17/09 A301 RMK A01 T01660089  RH  060%=      5-min Rain = 0
KTAS 120735Z 15004KT 17/09 A301 RMK A01 T01660089  RH  060%=      5-min Rain = 0
KTAS 120736Z 15005KT 17/09 A301 RMK A01 T01650088  RH  060%=      5-min Rain = 0
KTAS 120737Z 15005KT 17/09 A301 RMK A01 T01650088  RH  060%=      5-min Rain = 0
KTAS 120738Z 15005KT 16/09 A301 RMK A01 T01640088  RH  061%=      5-min Rain = 0
KTAS 120739Z 15005KT 16/09 A301 RMK A01 T01640088  RH  061%=      5-min Rain = 0
KTAS 120740Z 15005KT 16/09 A301 RMK A01 T01640088  RH  061%=      5-min Rain = 0
KTAS 120741Z 15004KT 16/09 A301 RMK A01 T01640088  RH  061%=      5-min Rain = 0
KTAS 120742Z 14004KT 16/09 A301 RMK A01 T01640088  RH  061%=      5-min Rain = 0
KTAS 120743Z 14004KT 16/09 A301 RMK A01 T01640087  RH  061%=      5-min Rain = 0
KTAS 120744Z 14004KT 16/09 A301 RMK A01 T01630087  RH  061%=      5-min Rain = 0
KTAS 120745Z 14004KT 16/09 A301 RMK A01 T01630087  RH  061%=      5-min Rain = 0
KTAS 120746Z 14004KT 16/09 A301 RMK A01 T01640087  RH  060%=      5-min Rain = 0
KTAS 120747Z 14004KT 16/09 A301 RMK A01 T01640087  RH  060%=      5-min Rain = 0
KTAS 120748Z 14004KT 16/09 A301 RMK A01 T01640087  RH  060%=      5-min Rain = 0
KTAS 120749Z 14004KT 16/09 A301 RMK A01 T01640087  RH  060%=      5-min Rain = 0
KTAS 120750Z 14004KT 16/09 A3009 RMK A01 T01630087  RH  061%=      5-min Rain = 0
KTAS 120751Z 14004KT 16/09 A3009 RMK A01 T01620087  RH  061%=      5-min Rain = 0
KTAS 120752Z 15004KT 16/09 A3009 RMK A01 T01620087  RH  061%=      5-min Rain = 0
KTAS 120753Z 15004KT 16/09 A3009 RMK A01 T01610087  RH  061%=      5-min Rain = 0
KTAS 120754Z 15004KT 16/09 A3009 RMK A01 T01600087  RH  062%=      5-min Rain = 0
KTAS 120755Z 15004KT 16/09 A3009 RMK A01 T01600087  RH  062%=      5-min Rain = 0
KTAS 120756Z 15003KT 16/09 A3009 RMK A01 T01590086  RH  062%=      5-min Rain = 0
KTAS 120757Z 15003KT 16/09 A3009 RMK A01 T01590087  RH  062%=      5-min Rain = 0
KTAS 120758Z 15003KT 16/09 A3009 RMK A01 T01590087  RH  062%=      5-min Rain = 0
KTAS 120759Z 15003KT 16/09 A3009 RMK A01 T01590087  RH  062%=      5-min Rain = 0
KTAS 120800Z 15003KT 16/09 A3009 RMK A01 T01590086  RH  062%=      5-min Rain = 0
KTAS 120801Z 15003KT 16/09 A3009 RMK A01 T01580086  RH  062%=      5-min Rain = 0
KTAS 120802Z 15003KT 16/09 A3009 RMK A01 T01570086  RH  063%=      5-min Rain = 0
KTAS 120803Z 15003KT 16/09 A3009 RMK A01 T01560086  RH  063%=      5-min Rain = 0
KTAS 120804Z 15003KT 16/09 A3009 RMK A01 T01550086  RH  064%=      5-min Rain = 0
KTAS 120805Z 15003KT 15/09 A3009 RMK A01 T01530086  RH  064%=      5-min Rain = 0
KTAS 120806Z 15003KT 15/09 A3009 RMK A01 T01520086  RH  065%=      5-min Rain = 0
KTAS 120807Z 15003KT 15/09 A3009 RMK A01 T01510086  RH  065%=      5-min Rain = 0
KTAS 120808Z 15003KT 15/09 A3009 RMK A01 T01500086  RH  066%=      5-min Rain = 0
KTAS 120809Z 15003KT 15/09 A3009 RMK A01 T01490086  RH  066%=      5-min Rain = 0
KTAS 120810Z 15003KT 15/09 A3009 RMK A01 T01480086  RH  066%=      5-min Rain = 0
KTAS 120811Z 15003KT 15/09 A3009 RMK A01 T01480086  RH  066%=      5-min Rain = 0
KTAS 120812Z 15003KT 15/09 A3009 RMK A01 T01480086  RH  066%=      5-min Rain = 0
KTAS 120813Z 15003KT 15/09 A3009 RMK A01 T01480086  RH  066%=      5-min Rain = 0
KTAS 120814Z 15003KT 15/09 A3009 RMK A01 T01480086  RH  066%=      5-min Rain = 0
KTAS 120815Z 15003KT 15/09 A3009 RMK A01 T01480086  RH  067%=      5-min Rain = 0
KTAS 120816Z 15003KT 15/09 A3009 RMK A01 T01480087  RH  067%=      5-min Rain = 0
KTAS 120817Z 15003KT 15/09 A3009 RMK A01 T01480087  RH  067%=      5-min Rain = 0
KTAS 120818Z 15003KT 15/09 A3009 RMK A01 T01490087  RH  066%=      5-min Rain = 0
KTAS 120819Z 16003KT 15/09 A3009 RMK A01 T01500087  RH  066%=      5-min Rain = 0
KTAS 120820Z 16003KT 15/09 A3009 RMK A01 T01500087  RH  066%=      5-min Rain = 0
KTAS 120821Z 16003KT 15/09 A3009 RMK A01 T01510087  RH  066%=      5-min Rain = 0
KTAS 120822Z 17003KT 15/09 A3009 RMK A01 T01500087  RH  066%=      5-min Rain = 0
KTAS 120823Z 17003KT 15/09 A3009 RMK A01 T01490086  RH  066%=      5-min Rain = 0
KTAS 120824Z 18003KT 15/09 A3009 RMK A01 T01470087  RH  067%=      5-min Rain = 0
KTAS 120825Z 18003KT 15/09 A3009 RMK A01 T01450087  RH  068%=      5-min Rain = 0
KTAS 120826Z 18002KT 14/09 A3009 RMK A01 T01430087  RH  069%=      5-min Rain = 0
KTAS 120827Z 17003KT 14/09 A3009 RMK A01 T01420087  RH  069%=      5-min Rain = 0
KTAS 120828Z 17003KT 14/09 A3009 RMK A01 T01410087  RH  070%=      5-min Rain = 0
KTAS 120829Z 17003KT 14/09 A3009 RMK A01 T01410088  RH  070%=      5-min Rain = 0
KTAS 120830Z 17003KT 14/09 A3009 RMK A01 T01400089  RH  071%=      5-min Rain = 0
KTAS 120831Z 17003KT 14/09 A3009 RMK A01 T01400090  RH  072%=      5-min Rain = 0
KTAS 120832Z 17003KT 14/09 A3009 RMK A01 T01410092  RH  072%=      5-min Rain = 0
KTAS 120833Z 17003KT 14/09 A3009 RMK A01 T01410093  RH  073%=      5-min Rain = 0
KTAS 120834Z 17003KT 14/10 A3009 RMK A01 T01420095  RH  073%=      5-min Rain = 0
KTAS 120835Z 17003KT 14/10 A3009 RMK A01 T01420095  RH  073%=      5-min Rain = 0
KTAS 120836Z 17003KT 14/10 A3009 RMK A01 T01430096  RH  073%=      5-min Rain = 0
KTAS 120837Z 17003KT 14/10 A3009 RMK A01 T01440097  RH  073%=      5-min Rain = 0
KTAS 120838Z 16003KT 15/10 A3009 RMK A01 T01450097  RH  073%=      5-min Rain = 0
KTAS 120839Z 16003KT 15/10 A3009 RMK A01 T01450097  RH  072%=      5-min Rain = 0
KTAS 120840Z 16003KT 15/10 A3009 RMK A01 T01460096  RH  072%=      5-min Rain = 0
KTAS 120841Z 16003KT 15/10 A3009 RMK A01 T01460096  RH  072%=      5-min Rain = 0
KTAS 120842Z 16003KT 15/10 A3009 RMK A01 T01470097  RH  072%=      5-min Rain = 0
KTAS 120843Z 16003KT 15/10 A3008 RMK A01 T01480098  RH  072%=      5-min Rain = 0
KTAS 120844Z 16003KT 15/10 A3008 RMK A01 T01480098  RH  072%=      5-min Rain = 0
KTAS 120845Z 16003KT 15/10 A3008 RMK A01 T01480098  RH  072%=      5-min Rain = 0
KTAS 120846Z 15003KT 15/10 A3008 RMK A01 T01480098  RH  072%=      5-min Rain = 0
KTAS 120847Z 15002KT 15/10 A3008 RMK A01 T01480098  RH  072%=      5-min Rain = 0
KTAS 120848Z 15002KT 15/10 A3008 RMK A01 T01480098  RH  072%=      5-min Rain = 0
KTAS 120849Z 16002KT 15/10 A3008 RMK A01 T01480097  RH  072%=      5-min Rain = 0
KTAS 120850Z 16002KT 15/10 A3009 RMK A01 T01470096  RH  071%=      5-min Rain = 0
KTAS 120851Z 16002KT 15/10 A3009 RMK A01 T01470096  RH  072%=      5-min Rain = 0
KTAS 120852Z 17002KT 15/10 A3009 RMK A01 T01460096  RH  072%=      5-min Rain = 0
KTAS 120853Z 17002KT 15/10 A3009 RMK A01 T01450095  RH  072%=      5-min Rain = 0
KTAS 120854Z 17002KT 14/10 A3009 RMK A01 T01440095  RH  072%=      5-min Rain = 0
KTAS 120855Z 17002KT 14/10 A3009 RMK A01 T01430095  RH  073%=      5-min Rain = 0
KTAS 120856Z 17002KT 14/10 A3009 RMK A01 T01430095  RH  073%=      5-min Rain = 0
KTAS 120857Z 18002KT 14/10 A3009 RMK A01 T01420095  RH  073%=      5-min Rain = 0
KTAS 120858Z 18002KT 14/10 A3009 RMK A01 T01420095  RH  073%=      5-min Rain = 0
KTAS 120859Z 18002KT 14/09 A3009 RMK A01 T01410094  RH  073%=      5-min Rain = 0
KTAS 120900Z 18002KT 14/09 A3009 RMK A01 T01400093  RH  073%=      5-min Rain = 0
KTAS 120901Z 18002KT 14/10 A3009 RMK A01 T01400095  RH  074%=      5-min Rain = 0
KTAS 120902Z 18002KT 14/10 A3009 RMK A01 T01400097  RH  075%=      5-min Rain = 0
KTAS 120903Z 19002KT 14/10 A3008 RMK A01 T01400097  RH  075%=      5-min Rain = 0
KTAS 120904Z 20002KT 14/10 A3008 RMK A01 T01410097  RH  075%=      5-min Rain = 0
KTAS 120905Z 20002KT 14/10 A3008 RMK A01 T01400096  RH  075%=      5-min Rain = 0
KTAS 120906Z 20002KT 14/10 A3008 RMK A01 T01400097  RH  075%=      5-min Rain = 0
KTAS 120907Z 20002KT 14/10 A3008 RMK A01 T01400098  RH  075%=      5-min Rain = 0
KTAS 120908Z 20002KT 14/10 A3008 RMK A01 T01410098  RH  075%=      5-min Rain = 0
KTAS 120909Z 21002KT 14/10 A3008 RMK A01 T01410098  RH  075%=      5-min Rain = 0
KTAS 120910Z 21002KT 14/10 A3008 RMK A01 T01400097  RH  075%=      5-min Rain = 0
KTAS 120911Z 21002KT 14/10 A3008 RMK A01 T01400097  RH  076%=      5-min Rain = 0
KTAS 120912Z 22002KT 14/10 A3008 RMK A01 T01390097  RH  076%=      5-min Rain = 0
KTAS 120913Z 23002KT 14/10 A3008 RMK A01 T01380097  RH  076%=      5-min Rain = 0
KTAS 120914Z 23002KT 14/10 A3008 RMK A01 T01370097  RH  077%=      5-min Rain = 0
KTAS 120915Z 24002KT 14/10 A3008 RMK A01 T01360097  RH  077%=      5-min Rain = 0
KTAS 120916Z 25002KT 14/10 A3008 RMK A01 T01350096  RH  077%=      5-min Rain = 0
KTAS 120917Z 25002KT 14/10 A3008 RMK A01 T01350096  RH  078%=      5-min Rain = 0
KTAS 120918Z 26002KT 13/10 A3008 RMK A01 T01340096  RH  078%=      5-min Rain = 0
KTAS 120919Z 26002KT 13/10 A3008 RMK A01 T01340098  RH  079%=      5-min Rain = 0
KTAS 120920Z 26002KT 13/10 A3008 RMK A01 T01340098  RH  079%=      5-min Rain = 0
KTAS 120921Z 27002KT 13/10 A3008 RMK A01 T01340098  RH  079%=      5-min Rain = 0
KTAS 120922Z 28002KT 13/10 A3008 RMK A01 T01330098  RH  079%=      5-min Rain = 0
KTAS 120923Z 28002KT 13/10 A3008 RMK A01 T01330097  RH  079%=      5-min Rain = 0
KTAS 120924Z 27001KT 13/10 A3008 RMK A01 T01320097  RH  079%=      5-min Rain = 0
KTAS 120925Z 28001KT 13/10 A3008 RMK A01 T01330099  RH  080%=      5-min Rain = 0
KTAS 120926Z 29001KT 13/10 A3008 RMK A01 T01340101  RH  081%=      5-min Rain = 0
KTAS 120927Z 29000KT 14/10 A3008 RMK A01 T01350103  RH  081%=      5-min Rain = 0
KTAS 120928Z 29001KT 14/10 A3008 RMK A01 T01360103  RH  081%=      5-min Rain = 0
KTAS 120929Z 29001KT 14/10 A3008 RMK A01 T01360104  RH  081%=      5-min Rain = 0
KTAS 120930Z 29001KT 14/11 A3008 RMK A01 T01370106  RH  081%=      5-min Rain = 0
KTAS 120931Z 29001KT 14/11 A3008 RMK A01 T01380106  RH  081%=      5-min Rain = 0
KTAS 120932Z 29002KT 14/11 A3008 RMK A01 T01380106  RH  081%=      5-min Rain = 0
KTAS 120933Z 29002KT 14/11 A3008 RMK A01 T01380106  RH  081%=      5-min Rain = 0
KTAS 120934Z 29002KT 14/11 A3008 RMK A01 T01380105  RH  080%=      5-min Rain = 0
KTAS 120935Z 29002KT 14/10 A3008 RMK A01 T01370104  RH  080%=      5-min Rain = 0
KTAS 120936Z 30002KT 14/10 A3008 RMK A01 T01370104  RH  080%=      5-min Rain = 0
KTAS 120937Z 30002KT 14/10 A3008 RMK A01 T01370104  RH  080%=      5-min Rain = 0
KTAS 120938Z 30001KT 14/10 A3008 RMK A01 T01380104  RH  080%=      5-min Rain = 0
KTAS 120939Z 30001KT 14/11 A3008 RMK A01 T01380105  RH  080%=      5-min Rain = 0
KTAS 120940Z 30001KT 14/11 A3008 RMK A01 T01380105  RH  080%=      5-min Rain = 0
KTAS 120941Z 30002KT 14/11 A3008 RMK A01 T01380105  RH  081%=      5-min Rain = 0
KTAS 120942Z 29002KT 14/11 A3008 RMK A01 T01390106  RH  081%=      5-min Rain = 0
KTAS 120943Z 29002KT 14/11 A3008 RMK A01 T01380105  RH  080%=      5-min Rain = 0
KTAS 120944Z 29002KT 14/11 A3008 RMK A01 T01380105  RH  081%=      5-min Rain = 0
KTAS 120945Z 29002KT 14/11 A3008 RMK A01 T01380105  RH  081%=      5-min Rain = 0
KTAS 120946Z 29002KT 14/11 A3008 RMK A01 T01370105  RH  081%=      5-min Rain = 0
KTAS 120947Z 29002KT 14/10 A3008 RMK A01 T01360104  RH  081%=      5-min Rain = 0
KTAS 120948Z 29003KT 14/10 A3008 RMK A01 T01360104  RH  081%=      5-min Rain = 0
KTAS 120949Z 29002KT 14/10 A3008 RMK A01 T01360104  RH  081%=      5-min Rain = 0
KTAS 120950Z 29002KT 14/10 A3008 RMK A01 T01360104  RH  081%=      5-min Rain = 0
KTAS 120951Z 29003KT 14/10 A3008 RMK A01 T01360104  RH  081%=      5-min Rain = 0
KTAS 120952Z 29003KT 14/11 A3008 RMK A01 T01360106  RH  082%=      5-min Rain = 0
KTAS 120953Z 29003KT 14/11 A3008 RMK A01 T01370107  RH  082%=      5-min Rain = 0
KTAS 120954Z 29003KT 14/11 A3008 RMK A01 T01370107  RH  082%=      5-min Rain = 0
KTAS 120955Z 29003KT 14/11 A3008 RMK A01 T01370106  RH  082%=      5-min Rain = 0
KTAS 120956Z 29003KT 14/11 A3008 RMK A01 T01360105  RH  082%=      5-min Rain = 0
KTAS 120957Z 29003KT 14/10 A3008 RMK A01 T01350104  RH  081%=      5-min Rain = 0
KTAS 120958Z 30003KT 14/10 A3008 RMK A01 T01350104  RH  081%=      5-min Rain = 0
KTAS 120959Z 30003KT 14/10 A3008 RMK A01 T01350104  RH  081%=      5-min Rain = 0
KTAS 121000Z 30003KT 14/10 A3008 RMK A01 T01350103  RH  081%=      5-min Rain = 0
KTAS 121001Z 29003KT 14/10 A3008 RMK A01 T01350103  RH  081%=      5-min Rain = 0
KTAS 121002Z 30003KT 14/10 A3008 RMK A01 T01350102  RH  081%=      5-min Rain = 0
KTAS 121003Z 29004KT 14/10 A3008 RMK A01 T01350102  RH  081%=      5-min Rain = 0
KTAS 121004Z 29004KT 14/10 A3007 RMK A01 T01350101  RH  080%=      5-min Rain = 0
KTAS 121005Z 29004KT 13/10 A3007 RMK A01 T01340101  RH  080%=      5-min Rain = 0
KTAS 121006Z 29004KT 13/10 A3007 RMK A01 T01340101  RH  080%=      5-min Rain = 0
KTAS 121007Z 29004KT 13/10 A3007 RMK A01 T01340100  RH  080%=      5-min Rain = 0
KTAS 121008Z 29004KT 13/10 A3007 RMK A01 T01340100  RH  080%=      5-min Rain = 0
KTAS 121009Z 28004KT 13/10 A3007 RMK A01 T01340101  RH  080%=      5-min Rain = 0
KTAS 121010Z 28004KT 13/10 A3007 RMK A01 T01340101  RH  080%=      5-min Rain = 0
KTAS 121011Z 29004KT 13/10 A3007 RMK A01 T01340100  RH  080%=      5-min Rain = 0
KTAS 121012Z 29004KT 13/10 A3007 RMK A01 T01330100  RH  080%=      5-min Rain = 0
KTAS 121013Z 29004KT 13/10 A3007 RMK A01 T01330100  RH  080%=      5-min Rain = 0
KTAS 121014Z 29004KT 13/10 A3007 RMK A01 T01340101  RH  080%=      5-min Rain = 0
KTAS 121015Z 29004KT 13/10 A3007 RMK A01 T01340101  RH  080%=      5-min Rain = 0
KTAS 121016Z 29003KT 13/10 A3007 RMK A01 T01340101  RH  080%=      5-min Rain = 0
KTAS 121017Z 29003KT 14/10 A3008 RMK A01 T01350101  RH  080%=      5-min Rain = 0
KTAS 121018Z 30003KT 13/10 A3008 RMK A01 T01340100  RH  080%=      5-min Rain = 0
KTAS 121019Z 30002KT 13/10 A3008 RMK A01 T01340100  RH  080%=      5-min Rain = 0
KTAS 121020Z 30002KT 13/10 A3008 RMK A01 T01340101  RH  080%=      5-min Rain = 0
KTAS 121021Z 30002KT 13/10 A3008 RMK A01 T01340101  RH  080%=      5-min Rain = 0
KTAS 121022Z 30002KT 13/10 A3008 RMK A01 T01340101  RH  080%=      5-min Rain = 0
KTAS 121023Z 31002KT 13/10 A3008 RMK A01 T01330100  RH  080%=      5-min Rain = 0
KTAS 121024Z 31002KT 13/10 A3008 RMK A01 T01330100  RH  081%=      5-min Rain = 0
KTAS 121025Z 31002KT 13/10 A3008 RMK A01 T01320100  RH  081%=      5-min Rain = 0
KTAS 121026Z 31002KT 13/10 A3008 RMK A01 T01310099  RH  081%=      5-min Rain = 0
KTAS 121027Z 31002KT 13/10 A3008 RMK A01 T01310100  RH  081%=      5-min Rain = 0
KTAS 121028Z 32002KT 13/10 A3008 RMK A01 T01320101  RH  082%=      5-min Rain = 0
KTAS 121029Z 32002KT 13/10 A3008 RMK A01 T01320101  RH  082%=      5-min Rain = 0
KTAS 121030Z 32002KT 13/10 A3008 RMK A01 T01320101  RH  082%=      5-min Rain = 0
KTAS 121031Z 32002KT 13/10 A3008 RMK A01 T01320102  RH  082%=      5-min Rain = 0
KTAS 121032Z 32002KT 13/10 A3008 RMK A01 T01330102  RH  082%=      5-min Rain = 0
KTAS 121033Z 32002KT 13/10 A3008 RMK A01 T01320101  RH  081%=      5-min Rain = 0
KTAS 121034Z 32002KT 13/10 A3008 RMK A01 T01320101  RH  081%=      5-min Rain = 0
KTAS 121035Z 32002KT 13/10 A3008 RMK A01 T01320101  RH  081%=      5-min Rain = 0
KTAS 121036Z 32002KT 13/10 A3008 RMK A01 T01330102  RH  081%=      5-min Rain = 0
KTAS 121037Z 33002KT 13/10 A3008 RMK A01 T01330102  RH  081%=      5-min Rain = 0
KTAS 121038Z 32002KT 13/10 A3008 RMK A01 T01330101  RH  081%=      5-min Rain = 0
KTAS 121039Z 32002KT 13/10 A3008 RMK A01 T01330101  RH  081%=      5-min Rain = 0
KTAS 121040Z 32002KT 13/10 A3008 RMK A01 T01330101  RH  081%=      5-min Rain = 0
KTAS 121041Z 31002KT 13/10 A3008 RMK A01 T01340103  RH  081%=      5-min Rain = 0
KTAS 121042Z 31002KT 13/10 A3008 RMK A01 T01340103  RH  082%=      5-min Rain = 0
KTAS 121043Z 31002KT 13/10 A3008 RMK A01 T01340103  RH  082%=      5-min Rain = 0
KTAS 121044Z 31002KT 13/10 A3008 RMK A01 T01340103  RH  082%=      5-min Rain = 0
KTAS 121045Z 31002KT 13/10 A3008 RMK A01 T01340104  RH  082%=      5-min Rain = 0
KTAS 121046Z 31002KT 13/10 A3008 RMK A01 T01340104  RH  082%=      5-min Rain = 0
KTAS 121047Z 31002KT 13/10 A3008 RMK A01 T01340104  RH  082%=      5-min Rain = 0
KTAS 121048Z 31002KT 13/10 A3008 RMK A01 T01340104  RH  082%=      5-min Rain = 0
KTAS 121049Z 31002KT 13/10 A3008 RMK A01 T01340104  RH  082%=      5-min Rain = 0
KTAS 121050Z 31002KT 13/10 A3008 RMK A01 T01340104  RH  082%=      5-min Rain = 0
KTAS 121051Z 32002KT 13/10 A3008 RMK A01 T01340104  RH  082%=      5-min Rain = 0
KTAS 121052Z 32002KT 13/10 A3008 RMK A01 T01330102  RH  081%=      5-min Rain = 0
KTAS 121053Z 32002KT 13/10 A3008 RMK A01 T01330101  RH  081%=      5-min Rain = 0
KTAS 121054Z 32002KT 13/10 A3008 RMK A01 T01330102  RH  081%=      5-min Rain = 0
KTAS 121055Z 33002KT 13/10 A3008 RMK A01 T01340101  RH  081%=      5-min Rain = 0
KTAS 121056Z 33002KT 13/10 A3008 RMK A01 T01340101  RH  081%=      5-min Rain = 0
KTAS 121057Z 34002KT 14/10 A3008 RMK A01 T01350101  RH  080%=      5-min Rain = 0
KTAS 121058Z 34002KT 14/10 A3008 RMK A01 T01350101  RH  080%=      5-min Rain = 0
KTAS 121059Z 34002KT 13/10 A3008 RMK A01 T01340101  RH  080%=      5-min Rain = 0
KTAS 121100Z 34002KT 13/10 A3008 RMK A01 T01340100  RH  080%=      5-min Rain = 0
KTAS 121101Z 33002KT 13/10 A3008 RMK A01 T01330100  RH  080%=      5-min Rain = 0
KTAS 121102Z 33002KT 13/10 A3008 RMK A01 T01330099  RH  080%=      5-min Rain = 0
KTAS 121103Z 33002KT 13/10 A3008 RMK A01 T01330099  RH  080%=      5-min Rain = 0
KTAS 121104Z 32002KT 13/10 A3008 RMK A01 T01330098  RH  080%=      5-min Rain = 0
KTAS 121105Z 32003KT 13/10 A3008 RMK A01 T01330099  RH  079%=      5-min Rain = 0
KTAS 121106Z 32003KT 13/10 A3008 RMK A01 T01340099  RH  079%=      5-min Rain = 0
KTAS 121107Z 32003KT 13/10 A3008 RMK A01 T01340098  RH  079%=      5-min Rain = 0
KTAS 121108Z 32003KT 13/10 A3008 RMK A01 T01340098  RH  079%=      5-min Rain = 0
KTAS 121109Z 32003KT 13/10 A3008 RMK A01 T01340098  RH  078%=      5-min Rain = 0
KTAS 121110Z 31003KT 13/10 A3008 RMK A01 T01340097  RH  078%=      5-min Rain = 0
KTAS 121111Z 31003KT 13/10 A3008 RMK A01 T01340097  RH  078%=      5-min Rain = 0
KTAS 121112Z 31003KT 13/10 A3008 RMK A01 T01330096  RH  078%=      5-min Rain = 0
KTAS 121113Z 31003KT 13/10 A3008 RMK A01 T01320095  RH  078%=      5-min Rain = 0
KTAS 121114Z 31003KT 13/09 A3008 RMK A01 T01300094  RH  079%=      5-min Rain = 0
KTAS 121115Z 31003KT 13/10 A3008 RMK A01 T01290095  RH  079%=      5-min Rain = 0
KTAS 121116Z 31004KT 13/10 A3008 RMK A01 T01290096  RH  080%=      5-min Rain = 0
KTAS 121117Z 31003KT 13/10 A3008 RMK A01 T01280097  RH  081%=      5-min Rain = 0
KTAS 121118Z 31003KT 13/10 A3008 RMK A01 T01290098  RH  082%=      5-min Rain = 0
KTAS 121119Z 32003KT 13/10 A3008 RMK A01 T01290099  RH  082%=      5-min Rain = 0
KTAS 121120Z 32003KT 13/10 A3008 RMK A01 T01290098  RH  082%=      5-min Rain = 0
KTAS 121121Z 32003KT 13/10 A3008 RMK A01 T01280097  RH  082%=      5-min Rain = 0
KTAS 121122Z 32003KT 13/10 A3008 RMK A01 T01280097  RH  082%=      5-min Rain = 0
KTAS 121123Z 32003KT 13/10 A3008 RMK A01 T01290099  RH  082%=      5-min Rain = 0
KTAS 121124Z 32003KT 13/10 A3008 RMK A01 T01300101  RH  083%=      5-min Rain = 0
KTAS 121125Z 32003KT 13/10 A3008 RMK A01 T01310102  RH  083%=      5-min Rain = 0
KTAS 121126Z 32004KT 13/10 A3008 RMK A01 T01310102  RH  083%=      5-min Rain = 0
KTAS 121127Z 33004KT 13/10 A3008 RMK A01 T01310101  RH  082%=      5-min Rain = 0
KTAS 121128Z 33004KT 13/10 A3008 RMK A01 T01300100  RH  082%=      5-min Rain = 0
KTAS 121129Z 33004KT 13/10 A3008 RMK A01 T01290099  RH  082%=      5-min Rain = 0
KTAS 121130Z 33004KT 13/10 A3008 RMK A01 T01280098  RH  082%=      5-min Rain = 0
KTAS 121131Z 33004KT 13/10 A3008 RMK A01 T01280099  RH  082%=      5-min Rain = 0
KTAS 121132Z 33004KT 13/10 A3008 RMK A01 T01280098  RH  082%=      5-min Rain = 0
KTAS 121133Z 33004KT 13/10 A3008 RMK A01 T01270098  RH  082%=      5-min Rain = 0
KTAS 121134Z 33004KT 13/10 A3008 RMK A01 T01270098  RH  083%=      5-min Rain = 0
KTAS 121135Z 33003KT 13/10 A3008 RMK A01 T01270099  RH  083%=      5-min Rain = 0
KTAS 121136Z 34003KT 13/10 A3008 RMK A01 T01280100  RH  083%=      5-min Rain = 0
KTAS 121137Z 34003KT 13/10 A3008 RMK A01 T01290101  RH  083%=      5-min Rain = 0
KTAS 121138Z 34003KT 13/10 A3008 RMK A01 T01300102  RH  083%=      5-min Rain = 0
KTAS 121139Z 33003KT 13/10 A3008 RMK A01 T01300102  RH  083%=      5-min Rain = 0
KTAS 121140Z 33003KT 13/10 A3008 RMK A01 T01300102  RH  083%=      5-min Rain = 0
KTAS 121141Z 33003KT 13/10 A3008 RMK A01 T01300101  RH  083%=      5-min Rain = 0
KTAS 121142Z 33004KT 13/10 A3008 RMK A01 T01300101  RH  082%=      5-min Rain = 0
KTAS 121143Z 32004KT 13/10 A3008 RMK A01 T01290100  RH  082%=      5-min Rain = 0
KTAS 121144Z 32004KT 13/10 A3008 RMK A01 T01290100  RH  083%=      5-min Rain = 0
KTAS 121145Z 32004KT 13/10 A3008 RMK A01 T01280100  RH  083%=      5-min Rain = 0
KTAS 121146Z 32004KT 13/10 A3008 RMK A01 T01280100  RH  083%=      5-min Rain = 0
KTAS 121147Z 32004KT 13/10 A3008 RMK A01 T01290101  RH  083%=      5-min Rain = 0
KTAS 121148Z 32004KT 13/10 A3008 RMK A01 T01290101  RH  083%=      5-min Rain = 0
KTAS 121149Z 32004KT 13/10 A3008 RMK A01 T01290101  RH  083%=      5-min Rain = 0
KTAS 121150Z 33004KT 13/10 A3008 RMK A01 T01290101  RH  083%=      5-min Rain = 0
KTAS 121151Z 33004KT 13/10 A3008 RMK A01 T01290102  RH  083%=      5-min Rain = 0
KTAS 121152Z 33004KT 13/10 A3008 RMK A01 T01290102  RH  083%=      5-min Rain = 0
KTAS 121153Z 34004KT 13/10 A3008 RMK A01 T01300102  RH  084%=      5-min Rain = 0
KTAS 121154Z 34004KT 13/10 A3008 RMK A01 T01290102  RH  083%=      5-min Rain = 0
KTAS 121155Z 33004KT 13/10 A3008 RMK A01 T01290102  RH  083%=      5-min Rain = 0
KTAS 121156Z 33004KT 13/10 A3008 RMK A01 T01290102  RH  083%=      5-min Rain = 0
KTAS 121157Z 33004KT 13/10 A3008 RMK A01 T01290101  RH  083%=      5-min Rain = 0
KTAS 121158Z 34004KT 13/10 A3008 RMK A01 T01290101  RH  083%=      5-min Rain = 0
KTAS 121159Z 34003KT 13/10 A3008 RMK A01 T01280101  RH  084%=      5-min Rain = 0
KTAS 121200Z 34003KT 13/10 A3008 RMK A01 T01290102  RH  084%=      5-min Rain = 0
KTAS 121201Z 34003KT 13/10 A3008 RMK A01 T01290102  RH  084%=      5-min Rain = 0
KTAS 121202Z 35003KT 13/10 A3008 RMK A01 T01280101  RH  084%=      5-min Rain = 0
KTAS 121203Z 35003KT 13/10 A3008 RMK A01 T01280101  RH  084%=      5-min Rain = 0
KTAS 121204Z 34003KT 13/10 A3008 RMK A01 T01280102  RH  084%=      5-min Rain = 0
KTAS 121205Z 34003KT 13/10 A3008 RMK A01 T01280102  RH  084%=      5-min Rain = 0
KTAS 121206Z 34003KT 13/10 A3008 RMK A01 T01280101  RH  084%=      5-min Rain = 0
KTAS 121207Z 34003KT 13/10 A3008 RMK A01 T01280102  RH  084%=      5-min Rain = 0
KTAS 121208Z 34003KT 13/10 A3008 RMK A01 T01280101  RH  084%=      5-min Rain = 0
KTAS 121209Z 34003KT 13/10 A3009 RMK A01 T01270101  RH  084%=      5-min Rain = 0
KTAS 121210Z 34003KT 13/10 A3009 RMK A01 T01280101  RH  084%=      5-min Rain = 0
KTAS 121211Z 34003KT 13/10 A3009 RMK A01 T01280101  RH  084%=      5-min Rain = 0
KTAS 121212Z 34003KT 13/10 A3009 RMK A01 T01270101  RH  084%=      5-min Rain = 0
KTAS 121213Z 34003KT 13/10 A3009 RMK A01 T01270101  RH  084%=      5-min Rain = 0
KTAS 121214Z 34003KT 13/10 A3009 RMK A01 T01270101  RH  084%=      5-min Rain = 0
KTAS 121215Z 34003KT 13/10 A3009 RMK A01 T01280102  RH  084%=      5-min Rain = 0
KTAS 121216Z 34003KT 13/10 A3009 RMK A01 T01280102  RH  084%=      5-min Rain = 0
KTAS 121217Z 34003KT 13/10 A3009 RMK A01 T01280102  RH  084%=      5-min Rain = 0
KTAS 121218Z 35003KT 13/10 A3009 RMK A01 T01280102  RH  084%=      5-min Rain = 0
KTAS 121219Z 35003KT 13/10 A3009 RMK A01 T01280103  RH  084%=      5-min Rain = 0
KTAS 121220Z 35003KT 13/10 A3009 RMK A01 T01280103  RH  084%=      5-min Rain = 0
KTAS 121221Z 35003KT 13/10 A3009 RMK A01 T01280103  RH  084%=      5-min Rain = 0
KTAS 121222Z 35003KT 13/10 A3009 RMK A01 T01280103  RH  084%=      5-min Rain = 0
KTAS 121223Z 35003KT 13/10 A3009 RMK A01 T01290103  RH  084%=      5-min Rain = 0
KTAS 121224Z 35003KT 13/10 A3008 RMK A01 T01290103  RH  084%=      5-min Rain = 0
KTAS 121225Z 35003KT 13/10 A3008 RMK A01 T01290104  RH  085%=      5-min Rain = 0
KTAS 121226Z 34003KT 13/10 A3008 RMK A01 T01290104  RH  085%=      5-min Rain = 0
KTAS 121227Z 34003KT 13/11 A3008 RMK A01 T01300105  RH  085%=      5-min Rain = 0
KTAS 121228Z 34003KT 13/11 A3008 RMK A01 T01300105  RH  085%=      5-min Rain = 0
KTAS 121229Z 34003KT 13/11 A3008 RMK A01 T01300105  RH  085%=      5-min Rain = 0
KTAS 121230Z 34003KT 13/10 A3008 RMK A01 T01300104  RH  085%=      5-min Rain = 0
KTAS 121231Z 33003KT 13/10 A3008 RMK A01 T01290104  RH  085%=      5-min Rain = 0
KTAS 121232Z 33003KT 13/10 A3008 RMK A01 T01290104  RH  085%=      5-min Rain = 0
KTAS 121233Z 33003KT 13/11 A3008 RMK A01 T01300105  RH  085%=      5-min Rain = 0
KTAS 121234Z 32004KT 13/10 A3008 RMK A01 T01290104  RH  085%=      5-min Rain = 0
KTAS 121235Z 32004KT 13/10 A3008 RMK A01 T01290103  RH  084%=      5-min Rain = 0
KTAS 121236Z 32004KT 13/10 A3008 RMK A01 T01280102  RH  084%=      5-min Rain = 0
KTAS 121237Z 32004KT 13/10 A3008 RMK A01 T01270101  RH  084%=      5-min Rain = 0
KTAS 121238Z 32003KT 13/10 A3008 RMK A01 T01270102  RH  084%=      5-min Rain = 0
KTAS 121239Z 32003KT 13/10 A3008 RMK A01 T01280103  RH  085%=      5-min Rain = 0
KTAS 121240Z 32003KT 13/10 A3008 RMK A01 T01280103  RH  085%=      5-min Rain = 0
KTAS 121241Z 33003KT 13/10 A3008 RMK A01 T01270102  RH  085%=      5-min Rain = 0
KTAS 121242Z 33003KT 13/10 A3008 RMK A01 T01280102  RH  085%=      5-min Rain = 0
KTAS 121243Z 33004KT 13/10 A3008 RMK A01 T01280103  RH  085%=      5-min Rain = 0
KTAS 121244Z 33004KT 13/10 A3008 RMK A01 T01290103  RH  084%=      5-min Rain = 0
KTAS 121245Z 33004KT 13/10 A3008 RMK A01 T01290102  RH  084%=      5-min Rain = 0
KTAS 121246Z 33003KT 13/10 A3008 RMK A01 T01280101  RH  084%=      5-min Rain = 0
KTAS 121247Z 33003KT 13/10 A3008 RMK A01 T01270100  RH  084%=      5-min Rain = 0
KTAS 121248Z 33003KT 13/10 A3008 RMK A01 T01270100  RH  084%=      5-min Rain = 0
KTAS 121249Z 34003KT 13/10 A3008 RMK A01 T01260100  RH  084%=      5-min Rain = 0
KTAS 121250Z 34003KT 13/10 A3008 RMK A01 T01270101  RH  084%=      5-min Rain = 0
KTAS 121251Z 35003KT 13/10 A3008 RMK A01 T01270102  RH  084%=      5-min Rain = 0
KTAS 121252Z 35003KT 13/10 A3008 RMK A01 T01270102  RH  084%=      5-min Rain = 0
KTAS 121253Z 35004KT 13/10 A3008 RMK A01 T01270101  RH  084%=      5-min Rain = 0
KTAS 121254Z 35004KT 13/10 A3008 RMK A01 T01270101  RH  084%=      5-min Rain = 0
KTAS 121255Z 34004KT 13/10 A3008 RMK A01 T01270102  RH  084%=      5-min Rain = 0
KTAS 121256Z 34004KT 13/10 A3008 RMK A01 T01280103  RH  084%=      5-min Rain = 0
KTAS 121257Z 35004KT 13/10 A3008 RMK A01 T01290103  RH  084%=      5-min Rain = 0
KTAS 121258Z 35004KT 13/10 A3008 RMK A01 T01290103  RH  084%=      5-min Rain = 0
KTAS 121259Z 34003KT 13/10 A3008 RMK A01 T01290103  RH  084%=      5-min Rain = 0
KTAS 121300Z 34003KT 13/10 A3008 RMK A01 T01300104  RH  084%=      5-min Rain = 0
KTAS 121301Z 35003KT 13/10 A3008 RMK A01 T01300104  RH  084%=      5-min Rain = 0
KTAS 121302Z 35003KT 13/10 A3008 RMK A01 T01310104  RH  084%=      5-min Rain = 0
KTAS 121303Z 34003KT 13/10 A3008 RMK A01 T01310104  RH  084%=      5-min Rain = 0
KTAS 121304Z 34003KT 13/11 A3008 RMK A01 T01320105  RH  084%=      5-min Rain = 0
KTAS 121305Z 34003KT 13/11 A3008 RMK A01 T01320105  RH  083%=      5-min Rain = 0
KTAS 121306Z 34004KT 13/11 A3008 RMK A01 T01320105  RH  083%=      5-min Rain = 0
KTAS 121307Z 33004KT 13/11 A3008 RMK A01 T01330105  RH  083%=      5-min Rain = 0
KTAS 121308Z 33003KT 13/11 A3008 RMK A01 T01340106  RH  083%=      5-min Rain = 0
KTAS 121309Z 33003KT 14/11 A3008 RMK A01 T01350107  RH  083%=      5-min Rain = 0
KTAS 121310Z 33003KT 14/11 A3008 RMK A01 T01360107  RH  083%=      5-min Rain = 0
KTAS 121311Z 32003KT 14/11 A3008 RMK A01 T01360108  RH  083%=      5-min Rain = 0
KTAS 121312Z 32003KT 14/11 A3009 RMK A01 T01370109  RH  083%=      5-min Rain = 0
KTAS 121313Z 32003KT 14/11 A3009 RMK A01 T01380109  RH  083%=      5-min Rain = 0
KTAS 121314Z 32003KT 14/11 A3009 RMK A01 T01390110  RH  083%=      5-min Rain = 0
KTAS 121315Z 32003KT 14/11 A3009 RMK A01 T01400110  RH  083%=      5-min Rain = 0
KTAS 121316Z 31003KT 14/11 A3009 RMK A01 T01400111  RH  082%=      5-min Rain = 0
KTAS 121317Z 32002KT 14/11 A3009 RMK A01 T01410112  RH  082%=      5-min Rain = 0
KTAS 121318Z 32002KT 14/11 A3009 RMK A01 T01420112  RH  082%=      5-min Rain = 0
KTAS 121319Z 32002KT 14/11 A3009 RMK A01 T01430112  RH  082%=      5-min Rain = 0
KTAS 121320Z 31002KT 14/11 A3009 RMK A01 T01440113  RH  081%=      5-min Rain = 0
KTAS 121321Z 31002KT 15/11 A3009 RMK A01 T01450113  RH  081%=      5-min Rain = 0
KTAS 121322Z 32002KT 15/11 A3009 RMK A01 T01460114  RH  081%=      5-min Rain = 0
KTAS 121323Z 32002KT 15/11 A3009 RMK A01 T01470113  RH  080%=      5-min Rain = 0
KTAS 121324Z 32002KT 15/11 A3009 RMK A01 T01480113  RH  080%=      5-min Rain = 0
KTAS 121325Z 32002KT 15/11 A3009 RMK A01 T01490113  RH  079%=      5-min Rain = 0
KTAS 121326Z 33002KT 15/11 A3009 RMK A01 T01500112  RH  078%=      5-min Rain = 0
KTAS 121327Z 33002KT 15/11 A3009 RMK A01 T01510111  RH  077%=      5-min Rain = 0
KTAS 121328Z 33002KT 15/11 A3009 RMK A01 T01520112  RH  077%=      5-min Rain = 0
KTAS 121329Z 33001KT 15/11 A3009 RMK A01 T01530113  RH  077%=      5-min Rain = 0
KTAS 121330Z 33002KT 15/11 A3009 RMK A01 T01540113  RH  076%=      5-min Rain = 0
KTAS 121331Z 33002KT 15/11 A3009 RMK A01 T01540111  RH  076%=      5-min Rain = 0
KTAS 121332Z 33002KT 16/11 A3009 RMK A01 T01550112  RH  075%=      5-min Rain = 0
KTAS 121333Z 33001KT 16/11 A3009 RMK A01 T01570113  RH  075%=      5-min Rain = 0
KTAS 121334Z 33001KT 16/11 A3009 RMK A01 T01580114  RH  075%=      5-min Rain = 0
KTAS 121335Z 32002KT 16/12 A3009 RMK A01 T01590115  RH  075%=      5-min Rain = 0
KTAS 121336Z 32002KT 16/11 A3009 RMK A01 T01590113  RH  074%=      5-min Rain = 0
KTAS 121337Z 32003KT 16/11 A3009 RMK A01 T01600113  RH  073%=      5-min Rain = 0
KTAS 121338Z 31002KT 16/11 A3009 RMK A01 T01610112  RH  073%=      5-min Rain = 0
KTAS 121339Z 32002KT 16/11 A3009 RMK A01 T01610113  RH  073%=      5-min Rain = 0
KTAS 121340Z 32003KT 16/11 A3009 RMK A01 T01630113  RH  072%=      5-min Rain = 0
KTAS 121341Z 32003KT 16/11 A3009 RMK A01 T01640113  RH  072%=      5-min Rain = 0
KTAS 121342Z 32002KT 17/11 A3009 RMK A01 T01650114  RH  072%=      5-min Rain = 0
KTAS 121343Z 32003KT 17/11 A3009 RMK A01 T01660113  RH  071%=      5-min Rain = 0
KTAS 121344Z 32002KT 17/11 A3009 RMK A01 T01670113  RH  071%=      5-min Rain = 0
KTAS 121345Z 32002KT 17/11 A3009 RMK A01 T01680114  RH  070%=      5-min Rain = 0
KTAS 121346Z 32002KT 17/12 A3009 RMK A01 T01690115  RH  070%=      5-min Rain = 0
KTAS 121347Z 32002KT 17/11 A3009 RMK A01 T01710114  RH  069%=      5-min Rain = 0
KTAS 121348Z 32002KT 17/12 A3009 RMK A01 T01720115  RH  069%=      5-min Rain = 0
KTAS 121349Z 33002KT 17/11 A3009 RMK A01 T01730114  RH  068%=      5-min Rain = 0
KTAS 121350Z 33002KT 17/11 A3009 RMK A01 T01740114  RH  068%=      5-min Rain = 0
KTAS 121351Z 34002KT 18/12 A3009 RMK A01 T01750115  RH  068%=      5-min Rain = 0
KTAS 121352Z 33002KT 18/12 A3009 RMK A01 T01760115  RH  067%=      5-min Rain = 0
KTAS 121353Z 33002KT 18/11 A3009 RMK A01 T01770113  RH  066%=      5-min Rain = 0
KTAS 121354Z 33002KT 18/11 A3009 RMK A01 T01780111  RH  065%=      5-min Rain = 0
KTAS 121355Z 34002KT 18/11 A3009 RMK A01 T01790113  RH  065%=      5-min Rain = 0
KTAS 121356Z 34002KT 18/11 A3009 RMK A01 T01810114  RH  065%=      5-min Rain = 0
KTAS 121357Z 33002KT 18/11 A3009 RMK A01 T01810110  RH  063%=      5-min Rain = 0
KTAS 121358Z 33002KT 18/11 A3009 RMK A01 T01820111  RH  063%=      5-min Rain = 0
KTAS 121359Z 33001KT 18/11 A3009 RMK A01 T01830111  RH  063%=      5-min Rain = 0
KTAS 121400Z 32002KT 18/11 A3009 RMK A01 T01840112  RH  063%=      5-min Rain = 0
KTAS 121401Z 34001KT 19/11 A3009 RMK A01 T01850113  RH  063%=      5-min Rain = 0
KTAS 121402Z 34001KT 19/12 A3009 RMK A01 T01870115  RH  063%=      5-min Rain = 0
KTAS 121403Z 35001KT 19/11 A3009 RMK A01 T01890113  RH  061%=      5-min Rain = 0
KTAS 121404Z 35001KT 19/11 A3009 RMK A01 T01900111  RH  060%=      5-min Rain = 0
KTAS 121405Z 00001KT 19/11 A3009 RMK A01 T01920112  RH  060%=      5-min Rain = 0
KTAS 121406Z 01001KT 19/11 A3009 RMK A01 T01930107  RH  057%=      5-min Rain = 0
KTAS 121407Z 36002KT 19/11 A3009 RMK A01 T01930109  RH  058%=      5-min Rain = 0
KTAS 121408Z 01002KT 19/11 A3009 RMK A01 T01940107  RH  057%=      5-min Rain = 0
KTAS 121409Z 34002KT 20/11 A3009 RMK A01 T01950107  RH  057%=      5-min Rain = 0
KTAS 121410Z 34002KT 19/11 A3009 RMK A01 T01940107  RH  057%=      5-min Rain = 0
KTAS 121411Z 35002KT 19/11 A3009 RMK A01 T01940105  RH  056%=      5-min Rain = 0
KTAS 121412Z 34002KT 20/11 A3009 RMK A01 T01950106  RH  056%=      5-min Rain = 0
KTAS 121413Z 34001KT 20/10 A3009 RMK A01 T01960104  RH  056%=      5-min Rain = 0
KTAS 121414Z 35001KT 20/11 A3009 RMK A01 T01960105  RH  056%=      5-min Rain = 0
KTAS 121415Z 01001KT 20/11 A3009 RMK A01 T01980109  RH  057%=      5-min Rain = 0
KTAS 121416Z 35002KT 20/11 A3009 RMK A01 T01990107  RH  055%=      5-min Rain = 0
KTAS 121417Z 35001KT 20/11 A3009 RMK A01 T02010109  RH  055%=      5-min Rain = 0
KTAS 121418Z 01001KT 20/11 A3009 RMK A01 T02020109  RH  055%=      5-min Rain = 0
KTAS 121419Z 01000KT 20/11 A3009 RMK A01 T02020107  RH  054%=      5-min Rain = 0
KTAS 121420Z 35000KT 20/11 A3009 RMK A01 T02020105  RH  054%=      5-min Rain = 0
KTAS 121421Z 32000KT 20/10 A3009 RMK A01 T02020104  RH  053%=      5-min Rain = 0
KTAS 121422Z 34000KT 20/11 A3009 RMK A01 T02030106  RH  054%=      5-min Rain = 0
KTAS 121423Z 00000KT 21/11 A3009 RMK A01 T02050107  RH  053%=      5-min Rain = 0
KTAS 121424Z 00000KT 21/11 A3009 RMK A01 T02080107  RH  052%=      5-min Rain = 0
KTAS 121425Z 04000KT 21/11 A3009 RMK A01 T02100108  RH  052%=      5-min Rain = 0
KTAS 121426Z 03001KT 21/11 A3009 RMK A01 T02120110  RH  052%=      5-min Rain = 0
KTAS 121427Z 04000KT 21/11 A3009 RMK A01 T02140109  RH  051%=      5-min Rain = 0
KTAS 121428Z 06000KT 22/11 A3009 RMK A01 T02160106  RH  049%=      5-min Rain = 0
KTAS 121429Z 07001KT 22/11 A3009 RMK A01 T02180106  RH  049%=      5-min Rain = 0
KTAS 121430Z 16000KT 22/11 A3009 RMK A01 T02210107  RH  049%=      5-min Rain = 0
KTAS 121431Z 14002KT 22/11 A3009 RMK A01 T02230106  RH  047%=      5-min Rain = 0
KTAS 121432Z 15001KT 22/10 A3009 RMK A01 T02230104  RH  047%=      5-min Rain = 0
KTAS 121433Z 18000KT 22/10 A3009 RMK A01 T02230103  RH  047%=      5-min Rain = 0
KTAS 121434Z 20001KT 22/10 A3009 RMK A01 T02240103  RH  046%=      5-min Rain = 0
KTAS 121435Z 15002KT 23/11 A3009 RMK A01 T02260105  RH  046%=      5-min Rain = 0
KTAS 121436Z 17001KT 23/10 A3009 RMK A01 T02260104  RH  046%=      5-min Rain = 0
KTAS 121437Z 16001KT 22/10 A3009 RMK A01 T02240103  RH  046%=      5-min Rain = 0
KTAS 121438Z 15001KT 22/10 A3009 RMK A01 T02230102  RH  046%=      5-min Rain = 0
KTAS 121439Z 14002KT 22/10 A3009 RMK A01 T02240103  RH  046%=      5-min Rain = 0
KTAS 121440Z 15001KT 23/10 A3009 RMK A01 T02250101  RH  045%=      5-min Rain = 0
KTAS 121441Z 15000KT 23/10 A3009 RMK A01 T02260100  RH  045%=      5-min Rain = 0
KTAS 121442Z 33000KT 23/10 A3009 RMK A01 T02260099  RH  044%=      5-min Rain = 0
KTAS 121443Z 20000KT 23/10 A3009 RMK A01 T02250099  RH  045%=      5-min Rain = 0
KTAS 121444Z 14001KT 23/10 A3009 RMK A01 T02260102  RH  046%=      5-min Rain = 0
KTAS 121445Z 17001KT 23/10 A3009 RMK A01 T02290100  RH  044%=      5-min Rain = 0
KTAS 121446Z 16002KT 23/10 A3009 RMK A01 T02300102  RH  044%=      5-min Rain = 0
KTAS 121447Z 16002KT 23/10 A3009 RMK A01 T02300101  RH  044%=      5-min Rain = 0
KTAS 121448Z 18002KT 23/10 A3009 RMK A01 T02290100  RH  044%=      5-min Rain = 0
KTAS 121449Z 16002KT 23/10 A3009 RMK A01 T02280101  RH  044%=      5-min Rain = 0
KTAS 121450Z 17003KT 23/10 A3009 RMK A01 T02290101  RH  044%=      5-min Rain = 0
KTAS 121451Z 17001KT 23/10 A3009 RMK A01 T02300099  RH  044%=      5-min Rain = 0
KTAS 121452Z 15002KT 23/10 A3009 RMK A01 T02300099  RH  043%=      5-min Rain = 0
KTAS 121453Z 14002KT 23/10 A3009 RMK A01 T02320097  RH  042%=      5-min Rain = 0
KTAS 121454Z 17002KT 23/10 A3009 RMK A01 T02320098  RH  042%=      5-min Rain = 0
KTAS 121455Z 18002KT 23/10 A3009 RMK A01 T02330099  RH  043%=      5-min Rain = 0
KTAS 121456Z 19002KT 23/10 A3009 RMK A01 T02320099  RH  043%=      5-min Rain = 0
KTAS 121457Z 18001KT 23/10 A3009 RMK A01 T02310095  RH  042%=      5-min Rain = 0
KTAS 121458Z 14001KT 23/10 A3009 RMK A01 T02300096  RH  043%=      5-min Rain = 0
KTAS 121459Z 14002KT 23/10 A3009 RMK A01 T02330098  RH  042%=      5-min Rain = 0
KTAS 121500Z 15002KT 24/10 A3008 RMK A01 T02350099  RH  042%=      5-min Rain = 0
KTAS 121501Z 16001KT 24/10 A3008 RMK A01 T02360098  RH  042%=      5-min Rain = 0
KTAS 121502Z 17002KT 24/09 A3008 RMK A01 T02360094  RH  040%=      5-min Rain = 0
KTAS 121503Z 16001KT 24/10 A3008 RMK A01 T02360098  RH  042%=      5-min Rain = 0
KTAS 121504Z 13003KT 24/10 A3008 RMK A01 T02370100  RH  042%=      5-min Rain = 0
KTAS 121505Z 15002KT 24/10 A3009 RMK A01 T02380101  RH  042%=      5-min Rain = 0
KTAS 121506Z 13003KT 24/10 A3009 RMK A01 T02390099  RH  041%=      5-min Rain = 0
KTAS 121507Z 15003KT 24/10 A3009 RMK A01 T02390100  RH  041%=      5-min Rain = 0
KTAS 121508Z 18004KT 24/10 A3009 RMK A01 T02370100  RH  042%=      5-min Rain = 0
KTAS 121509Z 20003KT 24/10 A3009 RMK A01 T02370102  RH  042%=      5-min Rain = 0
KTAS 121510Z 21003KT 24/10 A3009 RMK A01 T02350103  RH  043%=      5-min Rain = 0
KTAS 121511Z 21001KT 23/10 A3009 RMK A01 T02340104  RH  044%=      5-min Rain = 0
KTAS 121512Z 17003KT 24/11 A3009 RMK A01 T02360107  RH  044%=      5-min Rain = 0
KTAS 121513Z 18003KT 24/10 A3009 RMK A01 T02380104  RH  043%=      5-min Rain = 0
KTAS 121514Z 16002KT 24/11 A3009 RMK A01 T02390105  RH  043%=      5-min Rain = 0
KTAS 121515Z 18002KT 24/10 A3009 RMK A01 T02410104  RH  042%=      5-min Rain = 0
KTAS 121516Z 19003KT 24/11 A3009 RMK A01 T02410105  RH  042%=      5-min Rain = 0
KTAS 121517Z 17001KT 24/10 A3009 RMK A01 T02400104  RH  042%=      5-min Rain = 0
KTAS 121518Z 17001KT 24/10 A3008 RMK A01 T02400104  RH  042%=      5-min Rain = 0
KTAS 121519Z 22000KT 24/10 A3008 RMK A01 T02410104  RH  042%=      5-min Rain = 0
KTAS 121520Z 22003KT 24/10 A3008 RMK A01 T02430104  RH  042%=      5-min Rain = 0
KTAS 121521Z 23002KT 24/10 A3008 RMK A01 T02400103  RH  042%=      5-min Rain = 0
KTAS 121522Z 21003KT 24/10 A3008 RMK A01 T02390103  RH  042%=      5-min Rain = 0
KTAS 121523Z 22003KT 24/10 A3008 RMK A01 T02380104  RH  043%=      5-min Rain = 0
KTAS 121524Z 21002KT 24/10 A3009 RMK A01 T02380104  RH  043%=      5-min Rain = 0
KTAS 121525Z 17003KT 24/11 A3009 RMK A01 T02380105  RH  043%=      5-min Rain = 0
KTAS 121526Z 22002KT 24/11 A3009 RMK A01 T02400105  RH  042%=      5-min Rain = 0
KTAS 121527Z 24003KT 24/11 A3009 RMK A01 T02410105  RH  042%=      5-min Rain = 0
KTAS 121528Z 24002KT 24/11 A3008 RMK A01 T02400107  RH  043%=      5-min Rain = 0
KTAS 121529Z 25001KT 24/11 A3009 RMK A01 T02390107  RH  043%=      5-min Rain = 0
KTAS 121530Z 15001KT 24/11 A3009 RMK A01 T02390107  RH  044%=      5-min Rain = 0
KTAS 121531Z 13002KT 24/11 A3009 RMK A01 T02410109  RH  043%=      5-min Rain = 0
KTAS 121532Z 17002KT 24/11 A3009 RMK A01 T02440110  RH  043%=      5-min Rain = 0
KTAS 121533Z 20002KT 25/11 A3009 RMK A01 T02450109  RH  042%=      5-min Rain = 0
KTAS 121534Z 17003KT 24/11 A3009 RMK A01 T02440111  RH  043%=      5-min Rain = 0
KTAS 121535Z 14002KT 25/11 A3009 RMK A01 T02460109  RH  042%=      5-min Rain = 0
KTAS 121536Z 20003KT 25/11 A3009 RMK A01 T02480112  RH  042%=      5-min Rain = 0
KTAS 121537Z 15002KT 25/11 A3009 RMK A01 T02500112  RH  042%=      5-min Rain = 0
KTAS 121538Z 14003KT 25/11 A3009 RMK A01 T02520112  RH  042%=      5-min Rain = 0
KTAS 121539Z 14002KT 25/11 A3009 RMK A01 T02520111  RH  041%=      5-min Rain = 0
KTAS 121540Z 22004KT 25/11 A3009 RMK A01 T02530110  RH  041%=      5-min Rain = 0
KTAS 121541Z 22003KT 25/11 A3009 RMK A01 T02520106  RH  040%=      5-min Rain = 0
KTAS 121542Z 21003KT 25/11 A3009 RMK A01 T02520107  RH  040%=      5-min Rain = 0
KTAS 121543Z 19001KT 25/11 A3009 RMK A01 T02510107  RH  040%=      5-min Rain = 0
KTAS 121544Z 19000KT 25/11 A3009 RMK A01 T02500107  RH  041%=      5-min Rain = 0
KTAS 121545Z 23002KT 25/11 A3009 RMK A01 T02520109  RH  040%=      5-min Rain = 0
KTAS 121546Z 24002KT 25/11 A3009 RMK A01 T02540108  RH  040%=      5-min Rain = 0
KTAS 121547Z 26002KT 25/11 A3009 RMK A01 T02530107  RH  040%=      5-min Rain = 0
KTAS 121548Z 23002KT 25/11 A3009 RMK A01 T02530107  RH  040%=      5-min Rain = 0
KTAS 121549Z 26002KT 25/11 A3009 RMK A01 T02520105  RH  039%=      5-min Rain = 0
KTAS 121550Z 21001KT 25/10 A3009 RMK A01 T02520104  RH  039%=      5-min Rain = 0
KTAS 121551Z 22003KT 25/11 A3009 RMK A01 T02530106  RH  039%=      5-min Rain = 0
KTAS 121552Z 20002KT 25/11 A3009 RMK A01 T02540105  RH  039%=      5-min Rain = 0
KTAS 121553Z 21002KT 26/11 A3009 RMK A01 T02550106  RH  039%=      5-min Rain = 0
KTAS 121554Z 26003KT 26/10 A3009 RMK A01 T02550103  RH  038%=      5-min Rain = 0
KTAS 121555Z 22003KT 26/10 A3009 RMK A01 T02550101  RH  038%=      5-min Rain = 0
KTAS 121556Z 26003KT 26/10 A3009 RMK A01 T02550100  RH  037%=      5-min Rain = 0
KTAS 121557Z 27003KT 26/09 A3009 RMK A01 T02560094  RH  036%=      5-min Rain = 0
KTAS 121558Z 26004KT 26/09 A3009 RMK A01 T02560092  RH  036%=      5-min Rain = 0
KTAS 121559Z 28004KT 25/09 A3009 RMK A01 T02540090  RH  035%=      5-min Rain = 0
KTAS 121600Z 30001KT 25/09 A3009 RMK A01 T02540090  RH  035%=      5-min Rain = 0
KTAS 121601Z 32001KT 26/09 A3009 RMK A01 T02550094  RH  036%=      5-min Rain = 0
KTAS 121602Z 29002KT 26/09 A3009 RMK A01 T02570092  RH  035%=      5-min Rain = 0
KTAS 121603Z 26003KT 26/10 A3009 RMK A01 T02590095  RH  035%=      5-min Rain = 0
KTAS 121604Z 25004KT 26/09 A3009 RMK A01 T02610094  RH  035%=      5-min Rain = 0
KTAS 121605Z 23002KT 26/09 A3009 RMK A01 T02600094  RH  035%=      5-min Rain = 0
KTAS 121606Z 23002KT 26/10 A3009 RMK A01 T02600095  RH  035%=      5-min Rain = 0
KTAS 121607Z 25002KT 26/10 A3009 RMK A01 T02600095  RH  035%=      5-min Rain = 0
KTAS 121608Z 26001KT 26/09 A3009 RMK A01 T02600094  RH  035%=      5-min Rain = 0
KTAS 121609Z 21001KT 26/09 A3009 RMK A01 T02590093  RH  035%=      5-min Rain = 0
KTAS 121610Z 24001KT 26/10 A3009 RMK A01 T02590096  RH  036%=      5-min Rain = 0
KTAS 121611Z 24001KT 26/10 A3008 RMK A01 T02620099  RH  036%=      5-min Rain = 0
KTAS 121612Z 25004KT 26/10 A3008 RMK A01 T02640099  RH  035%=      5-min Rain = 0
KTAS 121613Z 25004KT 26/10 A3008 RMK A01 T02640098  RH  035%=      5-min Rain = 0
KTAS 121614Z 24003KT 26/10 A3008 RMK A01 T02610098  RH  036%=      5-min Rain = 0
KTAS 121615Z 25004KT 26/10 A3008 RMK A01 T02630101  RH  036%=      5-min Rain = 0
KTAS 121616Z 24004KT 27/10 A3008 RMK A01 T02650102  RH  036%=      5-min Rain = 0
KTAS 121617Z 26004KT 27/10 A3008 RMK A01 T02650101  RH  036%=      5-min Rain = 0
KTAS 121618Z 25003KT 26/10 A3008 RMK A01 T02640102  RH  036%=      5-min Rain = 0
KTAS 121619Z 23001KT 26/10 A3008 RMK A01 T02640101  RH  036%=      5-min Rain = 0
KTAS 121620Z 31003KT 27/10 A3008 RMK A01 T02650101  RH  036%=      5-min Rain = 0
KTAS 121621Z 31003KT 27/10 A3008 RMK A01 T02660103  RH  036%=      5-min Rain = 0
KTAS 121622Z 32003KT 27/10 A3008 RMK A01 T02660101  RH  036%=      5-min Rain = 0
KTAS 121623Z 30003KT 26/10 A3008 RMK A01 T02640098  RH  035%=      5-min Rain = 0
KTAS 121624Z 31003KT 26/10 A3008 RMK A01 T02630102  RH  036%=      5-min Rain = 0
KTAS 121625Z 32002KT 27/10 A3008 RMK A01 T02660102  RH  036%=      5-min Rain = 0
KTAS 121626Z 32002KT 27/10 A3008 RMK A01 T02670103  RH  036%=      5-min Rain = 0
KTAS 121627Z 24002KT 27/11 A3008 RMK A01 T02690105  RH  036%=      5-min Rain = 0
KTAS 121628Z 25003KT 27/10 A3008 RMK A01 T02680104  RH  036%=      5-min Rain = 0
KTAS 121629Z 29002KT 27/10 A3008 RMK A01 T02670103  RH  036%=      5-min Rain = 0
KTAS 121630Z 29003KT 27/11 A3008 RMK A01 T02690105  RH  036%=      5-min Rain = 0
KTAS 121631Z 32003KT 27/10 A3008 RMK A01 T02690102  RH  035%=      5-min Rain = 0
KTAS 121632Z 32003KT 27/10 A3008 RMK A01 T02690104  RH  036%=      5-min Rain = 0
KTAS 121633Z 33002KT 27/11 A3008 RMK A01 T02710106  RH  036%=      5-min Rain = 0
KTAS 121634Z 32002KT 27/10 A3008 RMK A01 T02710104  RH  035%=      5-min Rain = 0
KTAS 121635Z 24002KT 27/10 A3008 RMK A01 T02730103  RH  035%=      5-min Rain = 0
KTAS 121636Z 23003KT 27/10 A3008 RMK A01 T02740103  RH  034%=      5-min Rain = 0
KTAS 121637Z 26005KT 28/10 A3008 RMK A01 T02750103  RH  034%=      5-min Rain = 0
KTAS 121638Z 27004KT 28/10 A3008 RMK A01 T02760103  RH  034%=      5-min Rain = 0
KTAS 121639Z 27003KT 28/10 A3008 RMK A01 T02760103  RH  034%=      5-min Rain = 0
KTAS 121640Z 29004KT 28/10 A3008 RMK A01 T02750101  RH  034%=      5-min Rain = 0
KTAS 121641Z 27003KT 27/10 A3008 RMK A01 T02730100  RH  034%=      5-min Rain = 0
KTAS 121642Z 14001KT 27/10 A3008 RMK A01 T02720101  RH  034%=      5-min Rain = 0
KTAS 121643Z 28003KT 27/10 A3008 RMK A01 T02730102  RH  034%=      5-min Rain = 0
KTAS 121644Z 28002KT 27/10 A3008 RMK A01 T02730103  RH  035%=      5-min Rain = 0
KTAS 121645Z 29002KT 27/10 A3007 RMK A01 T02730102  RH  034%=      5-min Rain = 0
KTAS 121646Z 31002KT 27/11 A3007 RMK A01 T02730105  RH  035%=      5-min Rain = 0
KTAS 121647Z 29003KT 27/11 A3007 RMK A01 T02740105  RH  035%=      5-min Rain = 0
KTAS 121648Z 28002KT 28/11 A3007 RMK A01 T02780107  RH  034%=      5-min Rain = 0
KTAS 121649Z 27001KT 28/11 A3007 RMK A01 T02790108  RH  034%=      5-min Rain = 0
KTAS 121650Z 30004KT 28/11 A3007 RMK A01 T02820106  RH  033%=      5-min Rain = 0
KTAS 121651Z 27004KT 28/11 A3007 RMK A01 T02790106  RH  034%=      5-min Rain = 0
KTAS 121652Z 26003KT 28/11 A3007 RMK A01 T02810107  RH  034%=      5-min Rain = 0
KTAS 121653Z 24004KT 28/10 A3007 RMK A01 T02820104  RH  033%=      5-min Rain = 0
KTAS 121654Z 25003KT 28/10 A3007 RMK A01 T02790103  RH  033%=      5-min Rain = 0
KTAS 121655Z 26004KT 28/11 A3007 RMK A01 T02800105  RH  033%=      5-min Rain = 0
KTAS 121656Z 25003KT 28/10 A3007 RMK A01 T02800102  RH  033%=      5-min Rain = 0
KTAS 121657Z 22001KT 28/10 A3007 RMK A01 T02770103  RH  034%=      5-min Rain = 0
KTAS 121658Z 28003KT 28/11 A3007 RMK A01 T02770105  RH  034%=      5-min Rain = 0
KTAS 121659Z 25003KT 28/10 A3007 RMK A01 T02780103  RH  034%=      5-min Rain = 0
KTAS 121700Z 27003KT 28/10 A3007 RMK A01 T02770102  RH  033%=      5-min Rain = 0
KTAS 121701Z 27003KT 28/10 A3007 RMK A01 T02780104  RH  034%=      5-min Rain = 0
KTAS 121702Z 22002KT 28/11 A3007 RMK A01 T02810106  RH  033%=      5-min Rain = 0
KTAS 121703Z 24003KT 29/11 A3007 RMK A01 T02850105  RH  033%=      5-min Rain = 0
KTAS 121704Z 25005KT 29/11 A3007 RMK A01 T02870106  RH  032%=      5-min Rain = 0
KTAS 121705Z 25005KT 28/10 A3007 RMK A01 T02840103  RH  032%=      5-min Rain = 0
KTAS 121706Z 24002KT 28/10 A3007 RMK A01 T02790102  RH  033%=      5-min Rain = 0
KTAS 121707Z 24002KT 28/10 A3007 RMK A01 T02770103  RH  034%=      5-min Rain = 0
KTAS 121708Z 22004KT 28/10 A3007 RMK A01 T02790103  RH  033%=      5-min Rain = 0
KTAS 121709Z 26003KT 28/10 A3007 RMK A01 T02810103  RH  033%=      5-min Rain = 0
KTAS 121710Z 25002KT 28/10 A3007 RMK A01 T02820102  RH  033%=      5-min Rain = 0
KTAS 121711Z 34001KT 28/10 A3007 RMK A01 T02840102  RH  032%=      5-min Rain = 0
KTAS 121712Z 28003KT 28/10 A3006 RMK A01 T02840103  RH  032%=      5-min Rain = 0
KTAS 121713Z 28003KT 28/10 A3006 RMK A01 T02840101  RH  032%=      5-min Rain = 0
KTAS 121714Z 25004KT 28/10 A3006 RMK A01 T02830101  RH  032%=      5-min Rain = 0
KTAS 121715Z 27002KT 28/10 A3006 RMK A01 T02820104  RH  033%=      5-min Rain = 0
KTAS 121716Z 26004KT 28/10 A3006 RMK A01 T02830101  RH  032%=      5-min Rain = 0
KTAS 121717Z 26003KT 28/10 A3006 RMK A01 T02830102  RH  032%=      5-min Rain = 0
KTAS 121718Z 27005KT 29/11 A3006 RMK A01 T02850105  RH  033%=      5-min Rain = 0
KTAS 121719Z 28004KT 29/10 A3006 RMK A01 T02850104  RH  032%=      5-min Rain = 0
KTAS 121720Z 27002KT 29/10 A3006 RMK A01 T02860102  RH  032%=      5-min Rain = 0
KTAS 121721Z 22001KT 29/10 A3006 RMK A01 T02850101  RH  032%=      5-min Rain = 0
KTAS 121722Z 27002KT 29/11 A3006 RMK A01 T02850105  RH  032%=      5-min Rain = 0
KTAS 121723Z 32003KT 29/10 A3006 RMK A01 T02890104  RH  032%=      5-min Rain = 0
KTAS 121724Z 33003KT 29/10 A3006 RMK A01 T02910103  RH  031%=      5-min Rain = 0
KTAS 121725Z 32003KT 29/10 A3006 RMK A01 T02900103  RH  031%=      5-min Rain = 0
KTAS 121726Z 00002KT 29/10 A3006 RMK A01 T02920104  RH  031%=      5-min Rain = 0
KTAS 121727Z 31003KT 29/10 A3006 RMK A01 T02940104  RH  031%=      5-min Rain = 0
KTAS 121728Z 26005KT 30/10 A3006 RMK A01 T02950104  RH  031%=      5-min Rain = 0
KTAS 121729Z 27003KT 30/10 A3006 RMK A01 T02950101  RH  030%=      5-min Rain = 0
KTAS 121730Z 28002KT 29/10 A3006 RMK A01 T02930100  RH  030%=      5-min Rain = 0
KTAS 121731Z 23001KT 29/10 A3006 RMK A01 T02910100  RH  030%=      5-min Rain = 0
KTAS 121732Z 26002KT 29/11 A3006 RMK A01 T02920105  RH  031%=      5-min Rain = 0
KTAS 121733Z 24004KT 30/11 A3006 RMK A01 T02960107  RH  031%=      5-min Rain = 0
KTAS 121734Z 23002KT 30/10 A3006 RMK A01 T02970104  RH  030%=      5-min Rain = 0
KTAS 121735Z 23002KT 30/10 A3006 RMK A01 T02950104  RH  031%=      5-min Rain = 0
KTAS 121736Z 25001KT 29/10 A3006 RMK A01 T02930102  RH  031%=      5-min Rain = 0
KTAS 121737Z 25004KT 29/11 A3006 RMK A01 T02930105  RH  031%=      5-min Rain = 0
KTAS 121738Z 25002KT 30/10 A3005 RMK A01 T02960102  RH  030%=      5-min Rain = 0
KTAS 121739Z 25004KT 30/10 A3005 RMK A01 T02960104  RH  030%=      5-min Rain = 0
KTAS 121740Z 26003KT 30/10 A3005 RMK A01 T02960101  RH  030%=      5-min Rain = 0
KTAS 121741Z 29002KT 30/10 A3005 RMK A01 T02960101  RH  030%=      5-min Rain = 0
KTAS 121742Z 28001KT 30/10 A3005 RMK A01 T02980101  RH  030%=      5-min Rain = 0
KTAS 121743Z 23002KT 30/10 A3005 RMK A01 T02990102  RH  029%=      5-min Rain = 0
KTAS 121744Z 25005KT 30/10 A3005 RMK A01 T03000102  RH  029%=      5-min Rain = 0
KTAS 121745Z 26005KT 30/10 A3005 RMK A01 T03010102  RH  029%=      5-min Rain = 0
KTAS 121746Z 29001KT 30/10 A3005 RMK A01 T02980101  RH  029%=      5-min Rain = 0
KTAS 121747Z 24001KT 30/10 A3005 RMK A01 T02980102  RH  030%=      5-min Rain = 0
KTAS 121748Z 28005KT 30/10 A3005 RMK A01 T02990104  RH  030%=      5-min Rain = 0
KTAS 121749Z 27004KT 30/10 A3005 RMK A01 T02990100  RH  029%=      5-min Rain = 0
KTAS 121750Z 26003KT 30/10 A3005 RMK A01 T02990100  RH  029%=      5-min Rain = 0
KTAS 121751Z 28002KT 30/10 A3005 RMK A01 T02980102  RH  030%=      5-min Rain = 0
KTAS 121752Z 22001KT 30/10 A3005 RMK A01 T02970103  RH  030%=      5-min Rain = 0
KTAS 121753Z 25002KT 30/11 A3005 RMK A01 T02990106  RH  030%=      5-min Rain = 0
KTAS 121754Z 25005KT 30/10 A3005 RMK A01 T03030104  RH  029%=      5-min Rain = 0
KTAS 121755Z 23004KT 30/10 A3005 RMK A01 T03030104  RH  029%=      5-min Rain = 0
KTAS 121756Z 27002KT 30/10 A3005 RMK A01 T03020103  RH  029%=      5-min Rain = 0
KTAS 121757Z 35001KT 30/10 A3004 RMK A01 T03010102  RH  029%=      5-min Rain = 0
KTAS 121758Z 32002KT 30/11 A3004 RMK A01 T03010105  RH  030%=      5-min Rain = 0
KTAS 121759Z 24003KT 30/10 A3004 RMK A01 T03040104  RH  029%=      5-min Rain = 0
KTAS 121800Z 34002KT 31/10 A3004 RMK A01 T03060102  RH  028%=      5-min Rain = 0
KTAS 121801Z 34003KT 31/10 A3004 RMK A01 T03050100  RH  028%=      5-min Rain = 0
KTAS 121802Z 33006KT 31/10 A3004 RMK A01 T03070102  RH  028%=      5-min Rain = 0
KTAS 121803Z 32006KT 31/10 A3004 RMK A01 T03090098  RH  027%=      5-min Rain = 0
KTAS 121804Z 31005KT 31/10 A3004 RMK A01 T03080096  RH  027%=      5-min Rain = 0
KTAS 121805Z 33006KT 31/10 A3004 RMK A01 T03100098  RH  027%=      5-min Rain = 0
KTAS 121806Z 33006KT 31/10 A3004 RMK A01 T03120095  RH  026%=      5-min Rain = 0
KTAS 121807Z 30005KT 31/10 A3004 RMK A01 T03080095  RH  027%=      5-min Rain = 0
KTAS 121808Z 33005KT 31/10 A3004 RMK A01 T03090096  RH  027%=      5-min Rain = 0
KTAS 121809Z 32004KT 31/10 A3004 RMK A01 T03130099  RH  027%=      5-min Rain = 0
KTAS 121810Z 30004KT 32/10 A3004 RMK A01 T03150097  RH  026%=      5-min Rain = 0
KTAS 121811Z 31003KT 31/10 A3004 RMK A01 T03140096  RH  026%=      5-min Rain = 0
KTAS 121812Z 32007KT 31/10 A3004 RMK A01 T03140097  RH  026%=      5-min Rain = 0
KTAS 121813Z 34006KT 32/09 A3004 RMK A01 T03160093  RH  025%=      5-min Rain = 0
KTAS 121814Z 34005KT 31/09 A3004 RMK A01 T03130094  RH  026%=      5-min Rain = 0
KTAS 121815Z 33007KT 32/10 A3004 RMK A01 T03160098  RH  026%=      5-min Rain = 0
KTAS 121816Z 33006KT 32/09 A3004 RMK A01 T03180091  RH  025%=      5-min Rain = 0
KTAS 121817Z 32007KT 32/09 A3004 RMK A01 T03180090  RH  024%=      5-min Rain = 0
KTAS 121818Z 31006KT 32/09 A3004 RMK A01 T03190091  RH  024%=      5-min Rain = 0
KTAS 121819Z 33005KT 32/09 A3004 RMK A01 T03190088  RH  024%=      5-min Rain = 0
KTAS 121820Z 31004KT 31/09 A3004 RMK A01 T03140087  RH  024%=      5-min Rain = 0
KTAS 121821Z 30007KT 32/09 A3004 RMK A01 T03150088  RH  024%=      5-min Rain = 0
KTAS 121822Z 32009KT 32/09 A3004 RMK A01 T03180089  RH  024%=      5-min Rain = 0
KTAS 121823Z 32006KT 32/09 A3004 RMK A01 T03190088  RH  024%=      5-min Rain = 0
KTAS 121824Z 34006KT 32/09 A3004 RMK A01 T03190087  RH  024%=      5-min Rain = 0
KTAS 121825Z 34003KT 32/09 A3003 RMK A01 T03170090  RH  025%=      5-min Rain = 0
KTAS 121826Z 33006KT 32/09 A3003 RMK A01 T03180088  RH  024%=      5-min Rain = 0
KTAS 121827Z 30010KT 32/09 A3003 RMK A01 T03150090  RH  025%=      5-min Rain = 0
KTAS 121828Z 31010KT 32/09 A3003 RMK A01 T03180085  RH  024%=      5-min Rain = 0
KTAS 121829Z 31009KT 32/09 A3003 RMK A01 T03170085  RH  024%=      5-min Rain = 0
KTAS 121830Z 32009KT 31/08 A3003 RMK A01 T03140084  RH  024%=      5-min Rain = 0
KTAS 121831Z 32007KT 31/09 A3003 RMK A01 T03130088  RH  025%=      5-min Rain = 0
KTAS 121832Z 32006KT 31/09 A3003 RMK A01 T03140085  RH  024%=      5-min Rain = 0
KTAS 121833Z 31007KT 32/09 A3003 RMK A01 T03150089  RH  025%=      5-min Rain = 0
KTAS 121834Z 30008KT 32/09 A3003 RMK A01 T03170088  RH  024%=      5-min Rain = 0
KTAS 121835Z 30008KT 32/09 A3003 RMK A01 T03180089  RH  024%=      5-min Rain = 0
KTAS 121836Z 32008KT 32/09 A3003 RMK A01 T03190089  RH  024%=      5-min Rain = 0
KTAS 121837Z 31007KT 32/09 A3003 RMK A01 T03220093  RH  024%=      5-min Rain = 0
KTAS 121838Z 33006G11KT 32/09 A3003 RMK A01 T03210087  RH  024%=      5-min Rain = 0
KTAS 121839Z 31008KT 32/09 A3003 RMK A01 T03190091  RH  024%=      5-min Rain = 0
KTAS 121840Z 30007KT 32/09 A3003 RMK A01 T03200088  RH  024%=      5-min Rain = 0
KTAS 121841Z 32006KT 32/09 A3003 RMK A01 T03170088  RH  024%=      5-min Rain = 0
KTAS 121842Z 33006KT 32/09 A3002 RMK A01 T03160088  RH  024%=      5-min Rain = 0
KTAS 121843Z 33005KT 32/09 A3002 RMK A01 T03150090  RH  025%=      5-min Rain = 0
KTAS 121844Z 31004KT 32/09 A3002 RMK A01 T03150088  RH  024%=      5-min Rain = 0
KTAS 121845Z 33006KT 32/09 A3002 RMK A01 T03150091  RH  025%=      5-min Rain = 0
KTAS 121846Z 31007KT 32/09 A3002 RMK A01 T03160091  RH  025%=      5-min Rain = 0
KTAS 121847Z 30006KT 32/09 A3002 RMK A01 T03160090  RH  025%=      5-min Rain = 0
KTAS 121848Z 31004KT 32/09 A3002 RMK A01 T03170090  RH  025%=      5-min Rain = 0
KTAS 121849Z 29004KT 32/09 A3002 RMK A01 T03170088  RH  024%=      5-min Rain = 0
KTAS 121850Z 30005KT 32/09 A3002 RMK A01 T03170086  RH  024%=      5-min Rain = 0
KTAS 121851Z 32004KT 32/09 A3002 RMK A01 T03170090  RH  025%=      5-min Rain = 0
KTAS 121852Z 31006KT 32/09 A3002 RMK A01 T03170091  RH  025%=      5-min Rain = 0
KTAS 121853Z 31008KT 32/09 A3002 RMK A01 T03170094  RH  025%=      5-min Rain = 0
KTAS 121854Z 30009KT 32/09 A3002 RMK A01 T03210092  RH  024%=      5-min Rain = 0
KTAS 121855Z 30007KT 32/09 A3002 RMK A01 T03220091  RH  024%=      5-min Rain = 0
KTAS 121856Z 31005KT 32/09 A3002 RMK A01 T03200088  RH  024%=      5-min Rain = 0
KTAS 121857Z 28004KT 32/09 A3001 RMK A01 T03180088  RH  024%=      5-min Rain = 0
KTAS 121858Z 29006KT 32/09 A3001 RMK A01 T03180091  RH  025%=      5-min Rain = 0
KTAS 121859Z 28006KT 32/09 A3001 RMK A01 T03200090  RH  024%=      5-min Rain = 0
KTAS 121900Z 33005KT 32/09 A3001 RMK A01 T03200090  RH  024%=      5-min Rain = 0
KTAS 121901Z 32006KT 32/09 A3001 RMK A01 T03230089  RH  024%=      5-min Rain = 0
KTAS 121902Z 29006KT 33/09 A3001 RMK A01 T03260088  RH  023%=      5-min Rain = 0
KTAS 121903Z 31008KT 32/09 A3001 RMK A01 T03240089  RH  023%=      5-min Rain = 0
KTAS 121904Z 31005KT 32/09 A3001 RMK A01 T03220088  RH  023%=      5-min Rain = 0
KTAS 121905Z 31005KT 33/09 A3001 RMK A01 T03260090  RH  023%=      5-min Rain = 0
KTAS 121906Z 32006KT 33/09 A3001 RMK A01 T03290088  RH  023%=      5-min Rain = 0
KTAS 121907Z 32008KT 33/09 A3001 RMK A01 T03270086  RH  023%=      5-min Rain = 0
KTAS 121908Z 33006KT 32/09 A3001 RMK A01 T03200087  RH  024%=      5-min Rain = 0
KTAS 121909Z 34008KT 32/09 A3001 RMK A01 T03210086  RH  023%=      5-min Rain = 0
KTAS 121910Z 35008KT 32/09 A3001 RMK A01 T03230086  RH  023%=      5-min Rain = 0
KTAS 121911Z 35006KT 32/09 A3001 RMK A01 T03230085  RH  023%=      5-min Rain = 0
KTAS 121912Z 00005KT 32/09 A3001 RMK A01 T03220087  RH  023%=      5-min Rain = 0
KTAS 121913Z 32006KT 32/09 A3001 RMK A01 T03240089  RH  023%=      5-min Rain = 0
KTAS 121914Z 32004KT 33/09 A3001 RMK A01 T03260089  RH  023%=      5-min Rain = 0
KTAS 121915Z 31005KT 33/09 A3001 RMK A01 T03250090  RH  023%=      5-min Rain = 0
KTAS 121916Z 31007KT 33/09 A30 RMK A01 T03270090  RH  023%=      5-min Rain = 0
KTAS 121917Z 31006KT 33/09 A30 RMK A01 T03280091  RH  023%=      5-min Rain = 0
KTAS 121918Z 34005KT 33/09 A30 RMK A01 T03270090  RH  023%=      5-min Rain = 0
KTAS 121919Z 34005KT 33/09 A30 RMK A01 T03260092  RH  024%=      5-min Rain = 0
KTAS 121920Z 34004KT 33/09 A30 RMK A01 T03270092  RH  024%=      5-min Rain = 0
KTAS 121921Z 00005KT 33/09 A30 RMK A01 T03300094  RH  023%=      5-min Rain = 0
KTAS 121922Z 36005KT 33/09 A30 RMK A01 T03310094  RH  023%=      5-min Rain = 0
KTAS 121923Z 01006KT 33/09 A30 RMK A01 T03320093  RH  023%=      5-min Rain = 0
KTAS 121924Z 35006KT 33/10 A30 RMK A01 T03310095  RH  023%=      5-min Rain = 0
KTAS 121925Z 00007KT 33/09 A30 RMK A01 T03320091  RH  023%=      5-min Rain = 0
KTAS 121926Z 33007KT 33/09 A30 RMK A01 T03280091  RH  023%=      5-min Rain = 0
KTAS 121927Z 31006KT 33/09 A30 RMK A01 T03270085  RH  022%=      5-min Rain = 0
KTAS 121928Z 31006KT 33/08 A30 RMK A01 T03250082  RH  022%=      5-min Rain = 0
KTAS 121929Z 32005KT 33/08 A30 RMK A01 T03250081  RH  022%=      5-min Rain = 0
KTAS 121930Z 33007KT 33/09 A30 RMK A01 T03260085  RH  023%=      5-min Rain = 0
KTAS 121931Z 33003KT 33/08 A30 RMK A01 T03250083  RH  022%=      5-min Rain = 0
KTAS 121932Z 30003KT 32/08 A30 RMK A01 T03240081  RH  022%=      5-min Rain = 0
KTAS 121933Z 33005KT 32/08 A30 RMK A01 T03230082  RH  022%=      5-min Rain = 0
KTAS 121934Z 33005KT 33/09 A30 RMK A01 T03270085  RH  022%=      5-min Rain = 0
KTAS 121935Z 35003KT 33/09 A30 RMK A01 T03290086  RH  022%=      5-min Rain = 0
KTAS 121936Z 01003KT 33/09 A30 RMK A01 T03330086  RH  022%=      5-min Rain = 0
KTAS 121937Z 01002KT 33/08 A2999 RMK A01 T03330081  RH  021%=      5-min Rain = 0
KTAS 121938Z 34004KT 33/08 A2999 RMK A01 T03300082  RH  022%=      5-min Rain = 0
KTAS 121939Z 32004KT 33/08 A2999 RMK A01 T03270083  RH  022%=      5-min Rain = 0
KTAS 121940Z 27002KT 33/08 A2999 RMK A01 T03260083  RH  022%=      5-min Rain = 0
KTAS 121941Z 26002KT 33/08 A2999 RMK A01 T03270083  RH  022%=      5-min Rain = 0
KTAS 121942Z 33002KT 33/08 A2999 RMK A01 T03260083  RH  022%=      5-min Rain = 0
KTAS 121943Z 04003KT 33/09 A2999 RMK A01 T03260085  RH  023%=      5-min Rain = 0
KTAS 121944Z 35003KT 33/09 A2999 RMK A01 T03280088  RH  023%=      5-min Rain = 0
KTAS 121945Z 35002KT 33/09 A2999 RMK A01 T03310085  RH  022%=      5-min Rain = 0
KTAS 121946Z 36005KT 33/09 A2999 RMK A01 T03300085  RH  022%=      5-min Rain = 0
KTAS 121947Z 34004KT 33/08 A2999 RMK A01 T03280080  RH  022%=      5-min Rain = 0
KTAS 121948Z 33003G8KT 33/08 A2999 RMK A01 T03270082  RH  022%=      5-min Rain = 0
KTAS 121949Z 35010KT 33/09 A2999 RMK A01 T03300086  RH  022%=      5-min Rain = 0
KTAS 121950Z 35008KT 33/09 A2999 RMK A01 T03340085  RH  022%=      5-min Rain = 0
KTAS 121951Z 01006KT 33/08 A2999 RMK A01 T03330083  RH  021%=      5-min Rain = 0
KTAS 121952Z 01007KT 33/08 A2999 RMK A01 T03320081  RH  021%=      5-min Rain = 0
KTAS 121953Z 01004KT 33/08 A2999 RMK A01 T03310079  RH  021%=      5-min Rain = 0
KTAS 121954Z 01004KT 33/08 A2998 RMK A01 T03290080  RH  021%=      5-min Rain = 0
KTAS 121955Z 35004KT 33/09 A2998 RMK A01 T03310085  RH  022%=      5-min Rain = 0
KTAS 121956Z 36004KT 33/08 A2998 RMK A01 T03320081  RH  021%=      5-min Rain = 0
KTAS 121957Z 02004KT 33/09 A2998 RMK A01 T03310086  RH  022%=      5-min Rain = 0
KTAS 121958Z 01004KT 33/09 A2998 RMK A01 T03340085  RH  022%=      5-min Rain = 0
KTAS 121959Z 32005KT 34/08 A2998 RMK A01 T03360083  RH  021%=      5-min Rain = 0
KTAS 122000Z 30005KT 34/08 A2998 RMK A01 T03350080  RH  021%=      5-min Rain = 0
KTAS 122001Z 30008KT 34/08 A2998 RMK A01 T03350080  RH  021%=      5-min Rain = 0
KTAS 122002Z 32007KT 34/08 A2998 RMK A01 T03360079  RH  020%=      5-min Rain = 0
KTAS 122003Z 34007KT 33/08 A2998 RMK A01 T03320079  RH  021%=      5-min Rain = 0
KTAS 122004Z 34002KT 33/08 A2998 RMK A01 T03300082  RH  022%=      5-min Rain = 0
KTAS 122005Z 34002KT 33/08 A2998 RMK A01 T03320084  RH  022%=      5-min Rain = 0
KTAS 122006Z 32006KT 34/08 A2998 RMK A01 T03350084  RH  021%=      5-min Rain = 0
KTAS 122007Z 33005KT 34/08 A2998 RMK A01 T03370080  RH  021%=      5-min Rain = 0
KTAS 122008Z 36005KT 34/08 A2998 RMK A01 T03370079  RH  020%=      5-min Rain = 0
KTAS 122009Z 01005KT 34/08 A2997 RMK A01 T03370078  RH  020%=      5-min Rain = 0
KTAS 122010Z 33005KT 34/08 A2997 RMK A01 T03360079  RH  020%=      5-min Rain = 0
KTAS 122011Z 30008KT 34/08 A2997 RMK A01 T03360078  RH  020%=      5-min Rain = 0
KTAS 122012Z 30006KT 34/08 A2997 RMK A01 T03350075  RH  020%=      5-min Rain = 0
KTAS 122013Z 31004KT 33/08 A2997 RMK A01 T03340076  RH  020%=      5-min Rain = 0
KTAS 122014Z 29005KT 33/07 A2997 RMK A01 T03330073  RH  020%=      5-min Rain = 0
KTAS 122015Z 29005KT 33/07 A2997 RMK A01 T03320074  RH  020%=      5-min Rain = 0
KTAS 122016Z 29004KT 33/08 A2997 RMK A01 T03330075  RH  020%=      5-min Rain = 0
KTAS 122017Z 01004KT 33/08 A2997 RMK A01 T03340081  RH  021%=      5-min Rain = 0
KTAS 122018Z 03004KT 34/08 A2997 RMK A01 T03370081  RH  021%=      5-min Rain = 0
KTAS 122019Z 01007KT 34/08 A2997 RMK A01 T03390083  RH  021%=      5-min Rain = 0
KTAS 122020Z 02007KT 34/08 A2997 RMK A01 T03390080  RH  020%=      5-min Rain = 0
KTAS 122021Z 03007KT 34/08 A2997 RMK A01 T03370078  RH  020%=      5-min Rain = 0
KTAS 122022Z 03006KT 33/08 A2997 RMK A01 T03330078  RH  021%=      5-min Rain = 0
KTAS 122023Z 04006KT 33/08 A2997 RMK A01 T03320080  RH  021%=      5-min Rain = 0
KTAS 122024Z 05004KT 33/08 A2997 RMK A01 T03330079  RH  021%=      5-min Rain = 0
KTAS 122025Z 03006KT 33/08 A2997 RMK A01 T03340079  RH  021%=      5-min Rain = 0
KTAS 122026Z 33006KT 33/08 A2997 RMK A01 T03340079  RH  021%=      5-min Rain = 0
KTAS 122027Z 34005KT 33/08 A2997 RMK A01 T03330075  RH  020%=      5-min Rain = 0
KTAS 122028Z 32004KT 33/08 A2997 RMK A01 T03320076  RH  020%=      5-min Rain = 0
KTAS 122029Z 30006KT 33/07 A2997 RMK A01 T03320074  RH  020%=      5-min Rain = 0
KTAS 122030Z 30007KT 33/08 A2996 RMK A01 T03340077  RH  020%=      5-min Rain = 0
KTAS 122031Z 27004KT 34/08 A2996 RMK A01 T03360075  RH  020%=      5-min Rain = 0
KTAS 122032Z 32006KT 34/08 A2996 RMK A01 T03380081  RH  021%=      5-min Rain = 0
KTAS 122033Z 01007KT 34/08 A2996 RMK A01 T03420081  RH  020%=      5-min Rain = 0
KTAS 122034Z 01003KT 34/07 A2996 RMK A01 T03400074  RH  019%=      5-min Rain = 0
KTAS 122035Z 01002KT 34/07 A2996 RMK A01 T03370071  RH  019%=      5-min Rain = 0
KTAS 122036Z 00003KT 33/07 A2996 RMK A01 T03340072  RH  020%=      5-min Rain = 0
KTAS 122037Z 33004KT 33/08 A2996 RMK A01 T03340076  RH  020%=      5-min Rain = 0
KTAS 122038Z 31007KT 34/08 A2996 RMK A01 T03350076  RH  020%=      5-min Rain = 0
KTAS 122039Z 32008KT 34/08 A2996 RMK A01 T03360077  RH  020%=      5-min Rain = 0
KTAS 122040Z 33004KT 34/07 A2996 RMK A01 T03370073  RH  020%=      5-min Rain = 0
KTAS 122041Z 30003KT 34/07 A2996 RMK A01 T03350073  RH  020%=      5-min Rain = 0
KTAS 122042Z 01004KT 34/07 A2996 RMK A01 T03350074  RH  020%=      5-min Rain = 0
KTAS 122043Z 02004KT 33/07 A2996 RMK A01 T03340074  RH  020%=      5-min Rain = 0
KTAS 122044Z 04002KT 33/07 A2996 RMK A01 T03320070  RH  020%=      5-min Rain = 0
KTAS 122045Z 01003KT 33/08 A2996 RMK A01 T03310077  RH  021%=      5-min Rain = 0
KTAS 122046Z 31003KT 33/07 A2996 RMK A01 T03320073  RH  020%=      5-min Rain = 0
KTAS 122047Z 28005G11KT 33/07 A2995 RMK A01 T03320073  RH  020%=      5-min Rain = 0
KTAS 122048Z 30009KT 34/08 A2995 RMK A01 T03360078  RH  020%=      5-min Rain = 0
KTAS 122049Z 31007KT 34/07 A2995 RMK A01 T03380074  RH  019%=      5-min Rain = 0
KTAS 122050Z 31007KT 34/08 A2995 RMK A01 T03370077  RH  020%=      5-min Rain = 0
KTAS 122051Z 32007KT 34/08 A2995 RMK A01 T03380075  RH  020%=      5-min Rain = 0
KTAS 122052Z 30006KT 34/08 A2995 RMK A01 T03370077  RH  020%=      5-min Rain = 0
KTAS 122053Z 31004KT 34/07 A2995 RMK A01 T03380073  RH  019%=      5-min Rain = 0
KTAS 122054Z 30003KT 34/08 A2995 RMK A01 T03350076  RH  020%=      5-min Rain = 0
KTAS 122055Z 25001KT 34/07 A2995 RMK A01 T03360072  RH  020%=      5-min Rain = 0
KTAS 122056Z 23001KT 34/07 A2995 RMK A01 T03360074  RH  020%=      5-min Rain = 0
KTAS 122057Z 23004KT 34/07 A2995 RMK A01 T03400074  RH  019%=      5-min Rain = 0
KTAS 122058Z 22003KT 34/07 A2995 RMK A01 T03390072  RH  019%=      5-min Rain = 0
KTAS 122059Z 25005KT 34/08 A2995 RMK A01 T03370075  RH  020%=      5-min Rain = 0
KTAS 122100Z 24003KT 34/07 A2995 RMK A01 T03370073  RH  019%=      5-min Rain = 0
KTAS 122101Z 31004KT 34/07 A2995 RMK A01 T03360074  RH  020%=      5-min Rain = 0
KTAS 122102Z 30005KT 34/08 A2995 RMK A01 T03360075  RH  020%=      5-min Rain = 0
KTAS 122103Z 29002KT 34/07 A2995 RMK A01 T03370073  RH  020%=      5-min Rain = 0
KTAS 122104Z 32005KT 34/07 A2995 RMK A01 T03370074  RH  020%=      5-min Rain = 0
KTAS 122105Z 35004KT 34/07 A2995 RMK A01 T03360073  RH  020%=      5-min Rain = 0
KTAS 122106Z 28004KT 34/08 A2995 RMK A01 T03370076  RH  020%=      5-min Rain = 0
KTAS 122107Z 30008KT 34/08 A2995 RMK A01 T03410075  RH  019%=      5-min Rain = 0
KTAS 122108Z 28007KT 34/07 A2995 RMK A01 T03410073  RH  019%=      5-min Rain = 0
KTAS 122109Z 28006KT 34/07 A2995 RMK A01 T03400072  RH  019%=      5-min Rain = 0
KTAS 122110Z 29004KT 34/07 A2995 RMK A01 T03390073  RH  019%=      5-min Rain = 0
KTAS 122111Z 28004KT 34/07 A2995 RMK A01 T03380073  RH  019%=      5-min Rain = 0
KTAS 122112Z 34004KT 34/08 A2995 RMK A01 T03390076  RH  020%=      5-min Rain = 0
KTAS 122113Z 35004KT 34/08 A2995 RMK A01 T03390076  RH  020%=      5-min Rain = 0
KTAS 122114Z 30005KT 34/07 A2995 RMK A01 T03390074  RH  019%=      5-min Rain = 0
KTAS 122115Z 28007KT 34/07 A2995 RMK A01 T03400072  RH  019%=      5-min Rain = 0
KTAS 122116Z 31004KT 34/07 A2995 RMK A01 T03390074  RH  019%=      5-min Rain = 0
KTAS 122117Z 34004KT 34/08 A2994 RMK A01 T03410076  RH  019%=      5-min Rain = 0
KTAS 122118Z 28005KT 34/07 A2994 RMK A01 T03430073  RH  019%=      5-min Rain = 0
KTAS 122119Z 26003KT 34/07 A2994 RMK A01 T03410069  RH  019%=      5-min Rain = 0
KTAS 122120Z 24003KT 34/07 A2994 RMK A01 T03390072  RH  019%=      5-min Rain = 0
KTAS 122121Z 28006KT 34/08 A2994 RMK A01 T03410075  RH  019%=      5-min Rain = 0
KTAS 122122Z 31009KT 34/08 A2994 RMK A01 T03420075  RH  019%=      5-min Rain = 0
KTAS 122123Z 33008KT 34/07 A2994 RMK A01 T03400074  RH  019%=      5-min Rain = 0
KTAS 122124Z 32008KT 34/07 A2994 RMK A01 T03390074  RH  020%=      5-min Rain = 0
KTAS 122125Z 31004KT 34/08 A2994 RMK A01 T03390075  RH  020%=      5-min Rain = 0
KTAS 122126Z 34004KT 34/08 A2994 RMK A01 T03420075  RH  019%=      5-min Rain = 0
KTAS 122127Z 35002KT 34/07 A2994 RMK A01 T03400071  RH  019%=      5-min Rain = 0
KTAS 122128Z 35002KT 34/07 A2994 RMK A01 T03390072  RH  019%=      5-min Rain = 0
KTAS 122129Z 33003G9KT 34/07 A2994 RMK A01 T03370074  RH  020%=      5-min Rain = 0
KTAS 122130Z 34008KT 34/08 A2994 RMK A01 T03370076  RH  020%=      5-min Rain = 0
KTAS 122131Z 34007KT 34/07 A2994 RMK A01 T03350072  RH  020%=      5-min Rain = 0
KTAS 122132Z 35006KT 33/07 A2994 RMK A01 T03340074  RH  020%=      5-min Rain = 0
KTAS 122133Z 35004KT 33/08 A2994 RMK A01 T03330075  RH  020%=      5-min Rain = 0
KTAS 122134Z 00004KT 34/08 A2994 RMK A01 T03350075  RH  020%=      5-min Rain = 0
KTAS 122135Z 02002KT 34/07 A2994 RMK A01 T03350074  RH  020%=      5-min Rain = 0
KTAS 122136Z 31002G7KT 34/08 A2994 RMK A01 T03380078  RH  020%=      5-min Rain = 0
KTAS 122137Z 30004KT 34/08 A2994 RMK A01 T03410075  RH  019%=      5-min Rain = 0
KTAS 122138Z 29004KT 34/08 A2994 RMK A01 T03440075  RH  019%=      5-min Rain = 0
KTAS 122139Z 29004KT 35/07 A2993 RMK A01 T03450072  RH  019%=      5-min Rain = 0
KTAS 122140Z 34006KT 35/08 A2993 RMK A01 T03450077  RH  019%=      5-min Rain = 0
KTAS 122141Z 35005KT 35/08 A2993 RMK A01 T03470078  RH  019%=      5-min Rain = 0
KTAS 122142Z 01005KT 35/08 A2993 RMK A01 T03480075  RH  019%=      5-min Rain = 0
KTAS 122143Z 32004KT 35/07 A2993 RMK A01 T03460070  RH  018%=      5-min Rain = 0
KTAS 122144Z 35004KT 34/07 A2993 RMK A01 T03430069  RH  018%=      5-min Rain = 0
KTAS 122145Z 03004KT 34/07 A2993 RMK A01 T03410068  RH  018%=      5-min Rain = 0
KTAS 122146Z 05005KT 34/07 A2993 RMK A01 T03410069  RH  019%=      5-min Rain = 0
KTAS 122147Z 08005KT 34/07 A2993 RMK A01 T03400069  RH  019%=      5-min Rain = 0
KTAS 122148Z 10003KT 34/07 A2993 RMK A01 T03380066  RH  019%=      5-min Rain = 0
KTAS 122149Z 09003KT 34/07 A2993 RMK A01 T03350066  RH  019%=      5-min Rain = 0
KTAS 122150Z 07005KT 33/07 A2993 RMK A01 T03320067  RH  019%=      5-min Rain = 0
KTAS 122151Z 04004KT 33/07 A2993 RMK A01 T03300071  RH  020%=      5-min Rain = 0
KTAS 122152Z 03004KT 33/07 A2993 RMK A01 T03300072  RH  020%=      5-min Rain = 0
KTAS 122153Z 02004KT 33/07 A2993 RMK A01 T03310070  RH  020%=      5-min Rain = 0
KTAS 122154Z 01003KT 33/07 A2993 RMK A01 T03310070  RH  020%=      5-min Rain = 0
KTAS 122155Z 03004KT 33/07 A2993 RMK A01 T03330073  RH  020%=      5-min Rain = 0
KTAS 122156Z 03005KT 34/07 A2993 RMK A01 T03360071  RH  019%=      5-min Rain = 0
KTAS 122157Z 03004KT 34/07 A2993 RMK A01 T03370072  RH  019%=      5-min Rain = 0
KTAS 122158Z 05003KT 34/07 A2993 RMK A01 T03370068  RH  019%=      5-min Rain = 0
KTAS 122159Z 10001KT 34/07 A2993 RMK A01 T03370069  RH  019%=      5-min Rain = 0
KTAS 122200Z 09002KT 34/07 A2993 RMK A01 T03390070  RH  019%=      5-min Rain = 0
KTAS 122201Z 07002KT 34/07 A2993 RMK A01 T03400068  RH  019%=      5-min Rain = 0
KTAS 122202Z 10001KT 34/07 A2993 RMK A01 T03380068  RH  019%=      5-min Rain = 0
KTAS 122203Z 12002KT 34/07 A2993 RMK A01 T03390069  RH  019%=      5-min Rain = 0
KTAS 122204Z 14002KT 34/07 A2993 RMK A01 T03420069  RH  019%=      5-min Rain = 0
KTAS 122205Z 13002KT 34/07 A2993 RMK A01 T03440071  RH  018%=      5-min Rain = 0
KTAS 122206Z 08002KT 35/07 A2993 RMK A01 T03470071  RH  018%=      5-min Rain = 0
KTAS 122207Z 02003KT 35/07 A2993 RMK A01 T03470067  RH  018%=      5-min Rain = 0
KTAS 122208Z 04002KT 34/07 A2993 RMK A01 T03440069  RH  018%=      5-min Rain = 0
KTAS 122209Z 02002KT 34/07 A2993 RMK A01 T03440067  RH  018%=      5-min Rain = 0
KTAS 122210Z 36004KT 34/07 A2993 RMK A01 T03420068  RH  018%=      5-min Rain = 0
KTAS 122211Z 36002KT 34/07 A2993 RMK A01 T03400068  RH  019%=      5-min Rain = 0
KTAS 122212Z 00004KT 34/07 A2993 RMK A01 T03400068  RH  019%=      5-min Rain = 0
KTAS 122213Z 03004KT 34/07 A2993 RMK A01 T03390066  RH  018%=      5-min Rain = 0
KTAS 122214Z 03003KT 34/07 A2993 RMK A01 T03380070  RH  019%=      5-min Rain = 0
KTAS 122215Z 02004KT 34/07 A2993 RMK A01 T03390071  RH  019%=      5-min Rain = 0
KTAS 122216Z 35003KT 34/07 A2993 RMK A01 T03390072  RH  019%=      5-min Rain = 0
KTAS 122217Z 31003KT 34/08 A2993 RMK A01 T03410075  RH  019%=      5-min Rain = 0
KTAS 122218Z 32002KT 34/07 A2993 RMK A01 T03420069  RH  019%=      5-min Rain = 0
KTAS 122219Z 28003KT 34/07 A2993 RMK A01 T03430073  RH  019%=      5-min Rain = 0
KTAS 122220Z 30004KT 35/07 A2993 RMK A01 T03450074  RH  019%=      5-min Rain = 0
KTAS 122221Z 28003KT 34/07 A2993 RMK A01 T03440068  RH  018%=      5-min Rain = 0
KTAS 122222Z 27003KT 34/07 A2993 RMK A01 T03420069  RH  019%=      5-min Rain = 0
KTAS 122223Z 28002KT 34/07 A2993 RMK A01 T03410072  RH  019%=      5-min Rain = 0
KTAS 122224Z 26004KT 34/07 A2993 RMK A01 T03410069  RH  019%=      5-min Rain = 0
KTAS 122225Z 30003KT 34/07 A2993 RMK A01 T03390070  RH  019%=      5-min Rain = 0
KTAS 122226Z 33004KT 34/07 A2993 RMK A01 T03390069  RH  019%=      5-min Rain = 0
KTAS 122227Z 34002KT 34/07 A2992 RMK A01 T03370066  RH  019%=      5-min Rain = 0
KTAS 122228Z 35002KT 34/07 A2992 RMK A01 T03360068  RH  019%=      5-min Rain = 0
KTAS 122229Z 33002KT 34/07 A2992 RMK A01 T03360066  RH  019%=      5-min Rain = 0
KTAS 122230Z 36001KT 34/06 A2992 RMK A01 T03350063  RH  018%=      5-min Rain = 0
KTAS 122231Z 35002KT 34/06 A2992 RMK A01 T03360061  RH  018%=      5-min Rain = 0
KTAS 122232Z 01003KT 34/07 A2992 RMK A01 T03360066  RH  019%=      5-min Rain = 0
KTAS 122233Z 34002KT 34/06 A2992 RMK A01 T03370062  RH  018%=      5-min Rain = 0
KTAS 122234Z 02001KT 34/06 A2992 RMK A01 T03370061  RH  018%=      5-min Rain = 0
KTAS 122235Z 27001KT 34/06 A2992 RMK A01 T03380063  RH  018%=      5-min Rain = 0
KTAS 122236Z 31005KT 34/07 A2992 RMK A01 T03380066  RH  018%=      5-min Rain = 0
KTAS 122237Z 31005KT 34/07 A2992 RMK A01 T03390068  RH  019%=      5-min Rain = 0
KTAS 122238Z 33004KT 34/07 A2992 RMK A01 T03400069  RH  019%=      5-min Rain = 0
KTAS 122239Z 32002KT 34/07 A2992 RMK A01 T03410070  RH  019%=      5-min Rain = 0
KTAS 122240Z 31003KT 34/06 A2992 RMK A01 T03400062  RH  018%=      5-min Rain = 0
KTAS 122241Z 31002KT 34/07 A2992 RMK A01 T03400067  RH  018%=      5-min Rain = 0
KTAS 122242Z 31004KT 34/07 A2992 RMK A01 T03430069  RH  018%=      5-min Rain = 0
KTAS 122243Z 30006KT 34/06 A2992 RMK A01 T03430063  RH  018%=      5-min Rain = 0
KTAS 122244Z 28004KT 34/06 A2992 RMK A01 T03410061  RH  018%=      5-min Rain = 0
KTAS 122245Z 33004KT 34/07 A2992 RMK A01 T03410067  RH  018%=      5-min Rain = 0
KTAS 122246Z 34005KT 34/07 A2992 RMK A01 T03400065  RH  018%=      5-min Rain = 0
KTAS 122247Z 33007KT 34/06 A2992 RMK A01 T03390064  RH  018%=      5-min Rain = 0
KTAS 122248Z 32005KT 34/06 A2992 RMK A01 T03370060  RH  018%=      5-min Rain = 0
KTAS 122249Z 31003KT 34/06 A2992 RMK A01 T03360060  RH  018%=      5-min Rain = 0
KTAS 122250Z 30003KT 34/06 A2992 RMK A01 T03370062  RH  018%=      5-min Rain = 0
KTAS 122251Z 31004KT 34/06 A2992 RMK A01 T03380064  RH  018%=      5-min Rain = 0
KTAS 122252Z 30004KT 34/07 A2992 RMK A01 T03390065  RH  018%=      5-min Rain = 0
KTAS 122253Z 29003KT 34/06 A2992 RMK A01 T03390064  RH  018%=      5-min Rain = 0
KTAS 122254Z 32003KT 34/06 A2992 RMK A01 T03400062  RH  018%=      5-min Rain = 0
KTAS 122255Z 31002KT 34/06 A2992 RMK A01 T03390063  RH  018%=      5-min Rain = 0
KTAS 122256Z 28001KT 34/06 A2992 RMK A01 T03400061  RH  018%=      5-min Rain = 0
KTAS 122257Z 32003KT 34/06 A2992 RMK A01 T03420064  RH  018%=      5-min Rain = 0
KTAS 122258Z 34005KT 34/06 A2992 RMK A01 T03410063  RH  018%=      5-min Rain = 0
KTAS 122259Z 33004KT 34/07 A2992 RMK A01 T03380065  RH  018%=      5-min Rain = 0
KTAS 122300Z 34003KT 34/07 A2992 RMK A01 T03390066  RH  018%=      5-min Rain = 0
KTAS 122301Z 33003KT 34/06 A2992 RMK A01 T03380063  RH  018%=      5-min Rain = 0
KTAS 122302Z 33002KT 34/06 A2991 RMK A01 T03360062  RH  018%=      5-min Rain = 0
KTAS 122303Z 29004KT 34/07 A2991 RMK A01 T03370066  RH  019%=      5-min Rain = 0
KTAS 122304Z 29003KT 34/06 A2991 RMK A01 T03380061  RH  018%=      5-min Rain = 0
KTAS 122305Z 29002KT 34/06 A2991 RMK A01 T03380061  RH  018%=      5-min Rain = 0
KTAS 122306Z 33002KT 34/06 A2991 RMK A01 T03380062  RH  018%=      5-min Rain = 0
KTAS 122307Z 35001KT 34/06 A2991 RMK A01 T03370059  RH  018%=      5-min Rain = 0
KTAS 122308Z 35000KT 34/06 A2991 RMK A01 T03370061  RH  018%=      5-min Rain = 0
KTAS 122309Z 03001KT 34/06 A2991 RMK A01 T03370061  RH  018%=      5-min Rain = 0
KTAS 122310Z 32001KT 34/06 A2991 RMK A01 T03380063  RH  018%=      5-min Rain = 0
KTAS 122311Z 27001KT 34/06 A2991 RMK A01 T03390062  RH  018%=      5-min Rain = 0
KTAS 122312Z 28001KT 34/06 A2991 RMK A01 T03410061  RH  018%=      5-min Rain = 0
KTAS 122313Z 31002KT 34/07 A2991 RMK A01 T03410065  RH  018%=      5-min Rain = 0
KTAS 122314Z 31001KT 34/06 A2991 RMK A01 T03390062  RH  018%=      5-min Rain = 0
KTAS 122315Z 28001KT 34/06 A2991 RMK A01 T03400063  RH  018%=      5-min Rain = 0
KTAS 122316Z 34001KT 34/07 A2991 RMK A01 T03410065  RH  018%=      5-min Rain = 0
KTAS 122317Z 32000KT 34/07 A2991 RMK A01 T03430066  RH  018%=      5-min Rain = 0
KTAS 122318Z 34003KT 34/07 A2991 RMK A01 T03430067  RH  018%=      5-min Rain = 0
KTAS 122319Z 32002KT 34/06 A2991 RMK A01 T03410064  RH  018%=      5-min Rain = 0
KTAS 122320Z 31003KT 34/06 A2991 RMK A01 T03410064  RH  018%=      5-min Rain = 0
KTAS 122321Z 31002KT 34/06 A2991 RMK A01 T03390064  RH  018%=      5-min Rain = 0
KTAS 122322Z 30004KT 34/07 A2991 RMK A01 T03380069  RH  019%=      5-min Rain = 0
KTAS 122323Z 30004KT 34/07 A2991 RMK A01 T03380074  RH  020%=      5-min Rain = 0
KTAS 122324Z 31003KT 34/07 A2991 RMK A01 T03370073  RH  020%=      5-min Rain = 0
KTAS 122325Z 29003KT 34/07 A2991 RMK A01 T03360074  RH  020%=      5-min Rain = 0
KTAS 122326Z 30006KT 34/07 A2991 RMK A01 T03360074  RH  020%=      5-min Rain = 0
KTAS 122327Z 30006KT 34/07 A2991 RMK A01 T03350072  RH  020%=      5-min Rain = 0
KTAS 122328Z 31005KT 33/07 A2991 RMK A01 T03330072  RH  020%=      5-min Rain = 0
KTAS 122329Z 31005KT 33/08 A2991 RMK A01 T03320078  RH  021%=      5-min Rain = 0
KTAS 122330Z 31005KT 33/08 A2991 RMK A01 T03320079  RH  021%=      5-min Rain = 0
KTAS 122331Z 30004KT 33/08 A2991 RMK A01 T03310082  RH  021%=      5-min Rain = 0
KTAS 122332Z 30004KT 33/08 A2991 RMK A01 T03310083  RH  022%=      5-min Rain = 0
KTAS 122333Z 30003KT 33/08 A2991 RMK A01 T03310079  RH  021%=      5-min Rain = 0
KTAS 122334Z 30003KT 33/08 A2991 RMK A01 T03310079  RH  021%=      5-min Rain = 0
KTAS 122335Z 30003KT 33/08 A2991 RMK A01 T03310079  RH  021%=      5-min Rain = 0
KTAS 122336Z 30003KT 33/08 A2991 RMK A01 T03310079  RH  021%=      5-min Rain = 0
KTAS 122337Z 29004KT 33/08 A2991 RMK A01 T03320082  RH  021%=      5-min Rain = 0
KTAS 122338Z 29003KT 33/09 A2991 RMK A01 T03320085  RH  022%=      5-min Rain = 0
KTAS 122339Z 29004KT 33/08 A2991 RMK A01 T03330084  RH  022%=      5-min Rain = 0
KTAS 122340Z 29004KT 33/08 A2991 RMK A01 T03320084  RH  022%=      5-min Rain = 0
KTAS 122341Z 30004KT 33/08 A2991 RMK A01 T03310077  RH  021%=      5-min Rain = 0
KTAS 122342Z 30004KT 33/08 A2991 RMK A01 T03310077  RH  021%=      5-min Rain = 0
KTAS 122343Z 31004KT 33/08 A2991 RMK A01 T03300076  RH  021%=      5-min Rain = 0
KTAS 122344Z 30004KT 33/08 A2991 RMK A01 T03290079  RH  021%=      5-min Rain = 0
KTAS 122345Z 30005KT 33/08 A2991 RMK A01 T03290077  RH  021%=      5-min Rain = 0
KTAS 122346Z 29005KT 33/07 A2991 RMK A01 T03280073  RH  021%=      5-min Rain = 0
KTAS 122347Z 29005KT 33/07 A2991 RMK A01 T03280072  RH  020%=      5-min Rain = 0
KTAS 122348Z 28004KT 33/07 A2991 RMK A01 T03280071  RH  020%=      5-min Rain = 0
KTAS 122349Z 28003KT 33/07 A2991 RMK A01 T03280070  RH  020%=      5-min Rain = 0
KTAS 122350Z 29003KT 33/07 A2991 RMK A01 T03290070  RH  020%=      5-min Rain = 0
KTAS 122351Z 31002KT 33/07 A2991 RMK A01 T03290068  RH  020%=      5-min Rain = 0
KTAS 122352Z 30002KT 33/07 A2991 RMK A01 T03300071  RH  020%=      5-min Rain = 0
KTAS 122353Z 29002KT 33/07 A2991 RMK A01 T03300070  RH  020%=      5-min Rain = 0
KTAS 122354Z 27002KT 33/08 A2991 RMK A01 T03310077  RH  021%=      5-min Rain = 0
KTAS 122355Z 26002KT 33/08 A2991 RMK A01 T03300078  RH  021%=      5-min Rain = 0
KTAS 122356Z 26002KT 33/08 A2991 RMK A01 T03300080  RH  021%=      5-min Rain = 0
KTAS 122357Z 26002KT 33/08 A2991 RMK A01 T03290084  RH  022%=      5-min Rain = 0
KTAS 122358Z 26001KT 33/08 A299 RMK A01 T03300083  RH  022%=      5-min Rain = 0
KTAS 122359Z 26001KT 33/08 A299 RMK A01 T03310084  RH  022%=      5-min Rain = 0
KTAS 130000Z 25001KT 33/08 A299 RMK A01 T03320082  RH  021%=      5-min Rain = 0
KTAS 130001Z 26001KT 33/08 A299 RMK A01 T03330083  RH  021%=      5-min Rain = 0
KTAS 130002Z 26000KT 33/08 A299 RMK A01 T03340084  RH  021%=      5-min Rain = 0
KTAS 130003Z 00000KT 34/08 A299 RMK A01 T03350080  RH  021%=      5-min Rain = 0
KTAS 130004Z 26000KT 34/08 A299 RMK A01 T03360081  RH  021%=      5-min Rain = 0
KTAS 130005Z 00000KT 34/08 A299 RMK A01 T03370084  RH  021%=      5-min Rain = 0
KTAS 130006Z 00000KT 34/09 A299 RMK A01 T03370091  RH  022%=      5-min Rain = 0
KTAS 130007Z 00000KT 34/10 A299 RMK A01 T03370101  RH  024%=      5-min Rain = 0
KTAS 130008Z 00000KT 34/10 A299 RMK A01 T03360097  RH  023%=      5-min Rain = 0
KTAS 130009Z 00000KT 34/10 A299 RMK A01 T03350095  RH  023%=      5-min Rain = 0
KTAS 130010Z 00000KT 33/09 A299 RMK A01 T03330090  RH  022%=      5-min Rain = 0
KTAS 130011Z 00000KT 33/09 A299 RMK A01 T03320093  RH  023%=      5-min Rain = 0
KTAS 130012Z 00000KT 33/08 A299 RMK A01 T03300083  RH  022%=      5-min Rain = 0
KTAS 130013Z 00000KT 33/08 A299 RMK A01 T03280083  RH  022%=      5-min Rain = 0
KTAS 130014Z 00000KT 33/10 A299 RMK A01 T03270095  RH  024%=      5-min Rain = 0
KTAS 130015Z 00000KT 33/10 A299 RMK A01 T03270097  RH  024%=      5-min Rain = 0
KTAS 130016Z 00000KT 33/10 A299 RMK A01 T03280095  RH  024%=      5-min Rain = 0
KTAS 130017Z 00000KT 33/11 A299 RMK A01 T03290110  RH  026%=      5-min Rain = 0
KTAS 130018Z 00000KT 33/10 A299 RMK A01 T03290098  RH  024%=      5-min Rain = 0
KTAS 130019Z 00000KT 33/09 A299 RMK A01 T03280092  RH  023%=      5-min Rain = 0
KTAS 130020Z 00000KT 33/10 A299 RMK A01 T03280096  RH  024%=      5-min Rain = 0
KTAS 130021Z 00000KT 33/11 A299 RMK A01 T03290112  RH  027%=      5-min Rain = 0
KTAS 130022Z 00000KT 33/12 A299 RMK A01 T03290117  RH  027%=      5-min Rain = 0
KTAS 130023Z 00000KT 33/11 A299 RMK A01 T03290112  RH  027%=      5-min Rain = 0
KTAS 130024Z 00000KT 33/10 A299 RMK A01 T03280102  RH  025%=      5-min Rain = 0
KTAS 130025Z 00000KT 32/09 A299 RMK A01 T03240088  RH  023%=      5-min Rain = 0
KTAS 130026Z 23000KT 32/09 A299 RMK A01 T03200087  RH  024%=      5-min Rain = 0
KTAS 130027Z 22001KT 32/09 A299 RMK A01 T03170086  RH  024%=      5-min Rain = 0
KTAS 130028Z 22001KT 32/09 A299 RMK A01 T03150093  RH  025%=      5-min Rain = 0
KTAS 130029Z 23001KT 31/10 A299 RMK A01 T03130102  RH  027%=      5-min Rain = 0
KTAS 130030Z 23001KT 31/10 A299 RMK A01 T03110102  RH  027%=      5-min Rain = 0
KTAS 130031Z 23000KT 31/09 A299 RMK A01 T03100094  RH  026%=      5-min Rain = 0
KTAS 130032Z 00000KT 31/09 A299 RMK A01 T03090093  RH  026%=      5-min Rain = 0
KTAS 130033Z 00000KT 31/09 A299 RMK A01 T03080092  RH  026%=      5-min Rain = 0
KTAS 130034Z 00000KT 31/09 A299 RMK A01 T03070094  RH  027%=      5-min Rain = 0
KTAS 130035Z 14001KT 31/09 A299 RMK A01 T03060093  RH  027%=      5-min Rain = 0
KTAS 130036Z 14001KT 31/09 A299 RMK A01 T03050089  RH  026%=      5-min Rain = 0
KTAS 130037Z 14001KT 30/09 A299 RMK A01 T03040087  RH  026%=      5-min Rain = 0
KTAS 130038Z 14001KT 30/09 A299 RMK A01 T03040089  RH  026%=      5-min Rain = 0
KTAS 130039Z 14001KT 30/09 A299 RMK A01 T03030091  RH  027%=      5-min Rain = 0
KTAS 130040Z 14001KT 30/09 A299 RMK A01 T03020094  RH  027%=      5-min Rain = 0
KTAS 130041Z 13001KT 30/10 A299 RMK A01 T03010103  RH  029%=      5-min Rain = 0
KTAS 130042Z 11001KT 30/10 A299 RMK A01 T02980101  RH  029%=      5-min Rain = 0
KTAS 130043Z 11001KT 30/10 A299 RMK A01 T02960100  RH  030%=      5-min Rain = 0
KTAS 130044Z 11001KT 30/10 A299 RMK A01 T02950099  RH  030%=      5-min Rain = 0
KTAS 130045Z 10001KT 29/10 A299 RMK A01 T02930103  RH  031%=      5-min Rain = 0
KTAS 130046Z 10000KT 29/11 A299 RMK A01 T02910106  RH  032%=      5-min Rain = 0
KTAS 130047Z 09000KT 29/10 A299 RMK A01 T02890102  RH  031%=      5-min Rain = 0
KTAS 130048Z 08001KT 29/10 A299 RMK A01 T02880100  RH  031%=      5-min Rain = 0
KTAS 130049Z 07001KT 29/10 A299 RMK A01 T02880099  RH  031%=      5-min Rain = 0
KTAS 130050Z 07001KT 29/10 A299 RMK A01 T02880098  RH  031%=      5-min Rain = 0
KTAS 130051Z 07001KT 29/10 A299 RMK A01 T02880098  RH  031%=      5-min Rain = 0
KTAS 130052Z 07001KT 29/09 A299 RMK A01 T02870094  RH  030%=      5-min Rain = 0
KTAS 130053Z 06001KT 29/09 A299 RMK A01 T02880092  RH  029%=      5-min Rain = 0
KTAS 130054Z 06001KT 29/09 A299 RMK A01 T02880094  RH  030%=      5-min Rain = 0
KTAS 130055Z 07001KT 29/10 A299 RMK A01 T02880095  RH  030%=      5-min Rain = 0
KTAS 130056Z 07002KT 29/09 A299 RMK A01 T02870093  RH  030%=      5-min Rain = 0
KTAS 130057Z 07002KT 29/09 A299 RMK A01 T02870090  RH  029%=      5-min Rain = 0
KTAS 130058Z 07002KT 29/09 A299 RMK A01 T02870085  RH  028%=      5-min Rain = 0
KTAS 130059Z 07003KT 29/08 A299 RMK A01 T02870083  RH  028%=      5-min Rain = 0
KTAS 130100Z 07002KT 29/08 A299 RMK A01 T02880084  RH  028%=      5-min Rain = 0
KTAS 130101Z 07002KT 29/09 A299 RMK A01 T02870087  RH  028%=      5-min Rain = 0
KTAS 130102Z 07002KT 29/09 A299 RMK A01 T02850088  RH  029%=      5-min Rain = 0
KTAS 130103Z 07002KT 28/09 A299 RMK A01 T02830094  RH  031%=      5-min Rain = 0
KTAS 130104Z 08002KT 28/10 A299 RMK A01 T02800095  RH  031%=      5-min Rain = 0
KTAS 130105Z 07002KT 28/09 A299 RMK A01 T02780094  RH  032%=      5-min Rain = 0
KTAS 130106Z 07002KT 28/09 A299 RMK A01 T02770092  RH  031%=      5-min Rain = 0
KTAS 130107Z 07002KT 28/09 A299 RMK A01 T02770091  RH  031%=      5-min Rain = 0
KTAS 130108Z 07002KT 28/09 A299 RMK A01 T02760091  RH  031%=      5-min Rain = 0
KTAS 130109Z 07002KT 28/09 A299 RMK A01 T02760092  RH  031%=      5-min Rain = 0
KTAS 130110Z 07002KT 28/09 A299 RMK A01 T02750091  RH  031%=      5-min Rain = 0
KTAS 130111Z 07002KT 28/09 A299 RMK A01 T02750090  RH  031%=      5-min Rain = 0
KTAS 130112Z 08003KT 27/09 A299 RMK A01 T02740091  RH  032%=      5-min Rain = 0
KTAS 130113Z 09003KT 27/09 A299 RMK A01 T02740091  RH  032%=      5-min Rain = 0
KTAS 130114Z 10004KT 27/09 A299 RMK A01 T02730092  RH  032%=      5-min Rain = 0
KTAS 130115Z 11004KT 27/09 A299 RMK A01 T02720093  RH  033%=      5-min Rain = 0
KTAS 130116Z 11004KT 27/09 A299 RMK A01 T02710094  RH  033%=      5-min Rain = 0
KTAS 130117Z 11003KT 27/10 A299 RMK A01 T02700095  RH  033%=      5-min Rain = 0
KTAS 130118Z 12002KT 27/10 A299 RMK A01 T02670096  RH  034%=      5-min Rain = 0
KTAS 130119Z 12002KT 26/10 A299 RMK A01 T02640099  RH  035%=      5-min Rain = 0
KTAS 130120Z 12002KT 26/10 A299 RMK A01 T02610102  RH  037%=      5-min Rain = 0
KTAS 130121Z 12002KT 26/10 A299 RMK A01 T02590102  RH  037%=      5-min Rain = 0
KTAS 130122Z 12002KT 26/10 A299 RMK A01 T02580100  RH  037%=      5-min Rain = 0
KTAS 130123Z 12002KT 26/10 A299 RMK A01 T02580099  RH  037%=      5-min Rain = 0
KTAS 130124Z 12002KT 26/10 A299 RMK A01 T02590099  RH  037%=      5-min Rain = 0
KTAS 130125Z 12002KT 26/10 A299 RMK A01 T02590098  RH  036%=      5-min Rain = 0
KTAS 130126Z 12002KT 26/10 A299 RMK A01 T02600098  RH  036%=      5-min Rain = 0
KTAS 130127Z 12002KT 26/10 A299 RMK A01 T02600097  RH  036%=      5-min Rain = 0
KTAS 130128Z 12002KT 26/10 A299 RMK A01 T02610096  RH  035%=      5-min Rain = 0
KTAS 130129Z 12002KT 26/10 A299 RMK A01 T02610096  RH  035%=      5-min Rain = 0
KTAS 130130Z 13003KT 26/09 A299 RMK A01 T02610094  RH  035%=      5-min Rain = 0
KTAS 130131Z 13003KT 26/09 A299 RMK A01 T02620093  RH  034%=      5-min Rain = 0
KTAS 130132Z 13003KT 26/09 A2991 RMK A01 T02640091  RH  034%=      5-min Rain = 0
KTAS 130133Z 13003KT 27/09 A2991 RMK A01 T02660091  RH  033%=      5-min Rain = 0
KTAS 130134Z 13003KT 27/09 A2991 RMK A01 T02670090  RH  033%=      5-min Rain = 0
KTAS 130135Z 13003KT 27/09 A2991 RMK A01 T02680091  RH  033%=      5-min Rain = 0
KTAS 130136Z 13004KT 27/09 A2991 RMK A01 T02680092  RH  033%=      5-min Rain = 0
KTAS 130137Z 13004KT 27/09 A2991 RMK A01 T02670093  RH  033%=      5-min Rain = 0
KTAS 130138Z 13004KT 27/09 A2991 RMK A01 T02670093  RH  033%=      5-min Rain = 0
KTAS 130139Z 13004KT 27/09 A2991 RMK A01 T02670093  RH  033%=      5-min Rain = 0
KTAS 130140Z 13004KT 27/09 A2991 RMK A01 T02670093  RH  033%=      5-min Rain = 0
KTAS 130141Z 13004KT 27/09 A2991 RMK A01 T02680093  RH  033%=      5-min Rain = 0
KTAS 130142Z 13004KT 27/09 A2991 RMK A01 T02690093  RH  033%=      5-min Rain = 0
KTAS 130143Z 13004KT 27/09 A2991 RMK A01 T02690094  RH  033%=      5-min Rain = 0
KTAS 130144Z 13004KT 27/09 A2991 RMK A01 T02690094  RH  033%=      5-min Rain = 0
KTAS 130145Z 13004KT 27/09 A2991 RMK A01 T02680094  RH  033%=      5-min Rain = 0
KTAS 130146Z 13004KT 27/09 A2991 RMK A01 T02670094  RH  034%=      5-min Rain = 0
KTAS 130147Z 13004KT 27/10 A2991 RMK A01 T02660095  RH  034%=      5-min Rain = 0
KTAS 130148Z 13004KT 27/10 A2991 RMK A01 T02650095  RH  034%=      5-min Rain = 0
KTAS 130149Z 13005KT 26/10 A2991 RMK A01 T02640095  RH  034%=      5-min Rain = 0
KTAS 130150Z 13004KT 27/10 A2991 RMK A01 T02650095  RH  034%=      5-min Rain = 0
KTAS 130151Z 13004KT 27/10 A2991 RMK A01 T02650096  RH  034%=      5-min Rain = 0
KTAS 130152Z 13004KT 27/10 A2991 RMK A01 T02660095  RH  034%=      5-min Rain = 0
KTAS 130153Z 13004KT 27/09 A2991 RMK A01 T02680094  RH  033%=      5-min Rain = 0
KTAS 130154Z 13004KT 27/09 A2991 RMK A01 T02680094  RH  033%=      5-min Rain = 0
KTAS 130155Z 13004KT 27/09 A2991 RMK A01 T02680094  RH  033%=      5-min Rain = 0
KTAS 130156Z 13004KT 27/09 A2991 RMK A01 T02680094  RH  033%=      5-min Rain = 0
KTAS 130157Z 13004KT 27/09 A2991 RMK A01 T02680094  RH  033%=      5-min Rain = 0
KTAS 130158Z 12004KT 27/09 A2991 RMK A01 T02670094  RH  034%=      5-min Rain = 0
KTAS 130159Z 12004KT 27/10 A2992 RMK A01 T02670095  RH  034%=      5-min Rain = 0
KTAS 130200Z 12004KT 27/10 A2992 RMK A01 T02660096  RH  034%=      5-min Rain = 0
KTAS 130201Z 12004KT 27/10 A2992 RMK A01 T02650097  RH  035%=      5-min Rain = 0
KTAS 130202Z 11005KT 26/10 A2992 RMK A01 T02630097  RH  035%=      5-min Rain = 0
KTAS 130203Z 11005KT 26/10 A2992 RMK A01 T02620097  RH  035%=      5-min Rain = 0
KTAS 130204Z 10005KT 26/10 A2992 RMK A01 T02600099  RH  036%=      5-min Rain = 0
KTAS 130205Z 10005KT 26/10 A2992 RMK A01 T02580100  RH  037%=      5-min Rain = 0
KTAS 130206Z 10005KT 26/10 A2992 RMK A01 T02560099  RH  037%=      5-min Rain = 0
KTAS 130207Z 10005KT 26/10 A2992 RMK A01 T02550097  RH  037%=      5-min Rain = 0
KTAS 130208Z 11005KT 25/10 A2992 RMK A01 T02540097  RH  037%=      5-min Rain = 0
KTAS 130209Z 11005KT 25/10 A2992 RMK A01 T02540097  RH  037%=      5-min Rain = 0
KTAS 130210Z 11005KT 25/10 A2992 RMK A01 T02530096  RH  037%=      5-min Rain = 0
KTAS 130211Z 10005KT 25/10 A2992 RMK A01 T02520096  RH  037%=      5-min Rain = 0
KTAS 130212Z 10005KT 25/10 A2992 RMK A01 T02520096  RH  037%=      5-min Rain = 0
KTAS 130213Z 11006KT 25/10 A2992 RMK A01 T02510097  RH  038%=      5-min Rain = 0
KTAS 130214Z 11005KT 25/10 A2992 RMK A01 T02500096  RH  038%=      5-min Rain = 0
KTAS 130215Z 11005KT 25/10 A2992 RMK A01 T02490097  RH  038%=      5-min Rain = 0
KTAS 130216Z 11005KT 25/10 A2992 RMK A01 T02480096  RH  038%=      5-min Rain = 0
KTAS 130217Z 10005KT 25/10 A2992 RMK A01 T02470096  RH  038%=      5-min Rain = 0
KTAS 130218Z 10005KT 25/10 A2992 RMK A01 T02460095  RH  038%=      5-min Rain = 0
KTAS 130219Z 10005KT 25/09 A2992 RMK A01 T02460094  RH  038%=      5-min Rain = 0
KTAS 130220Z 10005KT 25/10 A2992 RMK A01 T02460095  RH  038%=      5-min Rain = 0
KTAS 130221Z 10005KT 25/10 A2992 RMK A01 T02450095  RH  038%=      5-min Rain = 0
KTAS 130222Z 09005KT 25/10 A2992 RMK A01 T02450095  RH  039%=      5-min Rain = 0
KTAS 130223Z 09005KT 24/10 A2992 RMK A01 T02440096  RH  039%=      5-min Rain = 0
KTAS 130224Z 09005KT 24/10 A2992 RMK A01 T02430097  RH  040%=      5-min Rain = 0
KTAS 130225Z 09005KT 24/10 A2992 RMK A01 T02410098  RH  040%=      5-min Rain = 0
KTAS 130226Z 08004KT 24/10 A2992 RMK A01 T02390098  RH  041%=      5-min Rain = 0
KTAS 130227Z 08004KT 24/10 A2992 RMK A01 T02370098  RH  041%=      5-min Rain = 0
KTAS 130228Z 08004KT 24/10 A2992 RMK A01 T02360098  RH  042%=      5-min Rain = 0
KTAS 130229Z 07004KT 23/10 A2992 RMK A01 T02340101  RH  043%=      5-min Rain = 0
KTAS 130230Z 07003KT 23/11 A2992 RMK A01 T02300105  RH  045%=      5-min Rain = 0
KTAS 130231Z 07002KT 23/11 A2993 RMK A01 T02260106  RH  046%=      5-min Rain = 0
KTAS 130232Z 06002KT 22/11 A2993 RMK A01 T02220105  RH  047%=      5-min Rain = 0
KTAS 130233Z 05002KT 22/11 A2993 RMK A01 T02190105  RH  048%=      5-min Rain = 0
KTAS 130234Z 02001KT 22/11 A2993 RMK A01 T02170108  RH  050%=      5-min Rain = 0
KTAS 130235Z 36002KT 22/12 A2993 RMK A01 T02150118  RH  054%=      5-min Rain = 0
KTAS 130236Z 34003KT 21/12 A2993 RMK A01 T02130119  RH  055%=      5-min Rain = 0
KTAS 130237Z 35004KT 21/12 A2993 RMK A01 T02110120  RH  056%=      5-min Rain = 0
KTAS 130238Z 36005KT 21/12 A2993 RMK A01 T02090120  RH  057%=      5-min Rain = 0
KTAS 130239Z 01006KT 21/12 A2993 RMK A01 T02070119  RH  057%=      5-min Rain = 0
KTAS 130240Z 01007KT 21/12 A2993 RMK A01 T02050115  RH  056%=      5-min Rain = 0
KTAS 130241Z 01006KT 21/11 A2993 RMK A01 T02110112  RH  053%=      5-min Rain = 0
KTAS 130242Z 01007KT 21/11 A2993 RMK A01 T02130113  RH  053%=      5-min Rain = 0
KTAS 130243Z 02006KT 21/11 A2994 RMK A01 T02130114  RH  053%=      5-min Rain = 0
KTAS 130244Z 02006KT 21/12 A2994 RMK A01 T02120115  RH  054%=      5-min Rain = 0
KTAS 130245Z 02006KT 21/12 A2994 RMK A01 T02120115  RH  054%=      5-min Rain = 0
KTAS 130246Z 02006KT 21/11 A2994 RMK A01 T02110114  RH  054%=      5-min Rain = 0
KTAS 130247Z 03006KT 21/11 A2994 RMK A01 T02100114  RH  054%=      5-min Rain = 0
KTAS 130248Z 03006KT 21/11 A2994 RMK A01 T02100113  RH  054%=      5-min Rain = 0
KTAS 130249Z 03006KT 21/11 A2994 RMK A01 T02100112  RH  053%=      5-min Rain = 0
KTAS 130250Z 03006KT 21/11 A2994 RMK A01 T02110111  RH  053%=      5-min Rain = 0
KTAS 130251Z 03006KT 21/11 A2994 RMK A01 T02110111  RH  053%=      5-min Rain = 0
KTAS 130252Z 04006KT 21/11 A2994 RMK A01 T02110110  RH  052%=      5-min Rain = 0
KTAS 130253Z 04006KT 21/11 A2994 RMK A01 T02130109  RH  051%=      5-min Rain = 0
KTAS 130254Z 05006KT 21/11 A2994 RMK A01 T02140109  RH  051%=      5-min Rain = 0
KTAS 130255Z 05006KT 22/11 A2994 RMK A01 T02150108  RH  051%=      5-min Rain = 0
KTAS 130256Z 05006KT 22/11 A2994 RMK A01 T02170108  RH  050%=      5-min Rain = 0
KTAS 130257Z 05006KT 22/11 A2994 RMK A01 T02200108  RH  049%=      5-min Rain = 0
KTAS 130258Z 06006KT 22/11 A2994 RMK A01 T02220107  RH  048%=      5-min Rain = 0
KTAS 130259Z 06006KT 22/11 A2994 RMK A01 T02230107  RH  048%=      5-min Rain = 0
KTAS 130300Z 06006KT 23/11 A2994 RMK A01 T02250107  RH  047%=      5-min Rain = 0
KTAS 130301Z 07006KT 23/11 A2994 RMK A01 T02250107  RH  047%=      5-min Rain = 0
KTAS 130302Z 07006KT 23/11 A2994 RMK A01 T02250106  RH  047%=      5-min Rain = 0
KTAS 130303Z 07006KT 23/11 A2994 RMK A01 T02260107  RH  047%=      5-min Rain = 0
KTAS 130304Z 08006KT 23/11 A2994 RMK A01 T02260107  RH  047%=      5-min Rain = 0
KTAS 130305Z 08005KT 23/11 A2994 RMK A01 T02250107  RH  047%=      5-min Rain = 0
KTAS 130306Z 08005KT 22/11 A2994 RMK A01 T02240107  RH  047%=      5-min Rain = 0
KTAS 130307Z 09006KT 22/11 A2994 RMK A01 T02230106  RH  048%=      5-min Rain = 0
KTAS 130308Z 08006KT 22/11 A2994 RMK A01 T02220105  RH  048%=      5-min Rain = 0
KTAS 130309Z 09007KT 22/11 A2994 RMK A01 T02220105  RH  047%=      5-min Rain = 0
KTAS 130310Z 09007KT 22/10 A2994 RMK A01 T02220104  RH  047%=      5-min Rain = 0
KTAS 130311Z 09007KT 22/10 A2994 RMK A01 T02230104  RH  047%=      5-min Rain = 0
KTAS 130312Z 09007KT 22/10 A2994 RMK A01 T02230104  RH  047%=      5-min Rain = 0
KTAS 130313Z 09007KT 22/10 A2994 RMK A01 T02240104  RH  047%=      5-min Rain = 0
KTAS 130314Z 08007KT 22/10 A2994 RMK A01 T02240104  RH  047%=      5-min Rain = 0
KTAS 130315Z 08007KT 22/10 A2994 RMK A01 T02240104  RH  047%=      5-min Rain = 0
KTAS 130316Z 08006KT 22/10 A2994 RMK A01 T02230104  RH  047%=      5-min Rain = 0
KTAS 130317Z 08006KT 22/10 A2994 RMK A01 T02230104  RH  047%=      5-min Rain = 0
KTAS 130318Z 07006KT 22/10 A2994 RMK A01 T02230104  RH  047%=      5-min Rain = 0
KTAS 130319Z 07006KT 22/10 A2994 RMK A01 T02220104  RH  047%=      5-min Rain = 0
KTAS 130320Z 07006KT 22/10 A2994 RMK A01 T02220104  RH  047%=      5-min Rain = 0
KTAS 130321Z 07005KT 22/11 A2995 RMK A01 T02210105  RH  047%=      5-min Rain = 0
KTAS 130322Z 06005KT 22/11 A2995 RMK A01 T02210105  RH  048%=      5-min Rain = 0
KTAS 130323Z 07005KT 22/11 A2995 RMK A01 T02200105  RH  048%=      5-min Rain = 0
KTAS 130324Z 07005KT 22/11 A2995 RMK A01 T02200105  RH  048%=      5-min Rain = 0
KTAS 130325Z 07006KT 22/11 A2995 RMK A01 T02190105  RH  048%=      5-min Rain = 0
KTAS 130326Z 07006KT 22/11 A2995 RMK A01 T02190106  RH  049%=      5-min Rain = 0
KTAS 130327Z 07006KT 22/11 A2995 RMK A01 T02190106  RH  049%=      5-min Rain = 0
KTAS 130328Z 08006KT 22/11 A2995 RMK A01 T02190105  RH  048%=      5-min Rain = 0
KTAS 130329Z 08005KT 22/11 A2995 RMK A01 T02190105  RH  048%=      5-min Rain = 0
KTAS 130330Z 08005KT 22/11 A2995 RMK A01 T02190106  RH  049%=      5-min Rain = 0
KTAS 130331Z 08005KT 22/11 A2995 RMK A01 T02180106  RH  049%=      5-min Rain = 0
KTAS 130332Z 08005KT 22/11 A2995 RMK A01 T02160105  RH  049%=      5-min Rain = 0
KTAS 130333Z 08005KT 22/11 A2995 RMK A01 T02160105  RH  049%=      5-min Rain = 0
KTAS 130334Z 08005KT 21/11 A2995 RMK A01 T02140105  RH  050%=      5-min Rain = 0
KTAS 130335Z 08005KT 21/10 A2995 RMK A01 T02130104  RH  050%=      5-min Rain = 0
KTAS 130336Z 08005KT 21/10 A2995 RMK A01 T02120104  RH  050%=      5-min Rain = 0
KTAS 130337Z 08005KT 21/10 A2995 RMK A01 T02110104  RH  050%=      5-min Rain = 0
KTAS 130338Z 07004KT 21/10 A2995 RMK A01 T02110104  RH  050%=      5-min Rain = 0
KTAS 130339Z 07004KT 21/10 A2995 RMK A01 T02100104  RH  051%=      5-min Rain = 0
KTAS 130340Z 07004KT 21/10 A2995 RMK A01 T02090104  RH  051%=      5-min Rain = 0
KTAS 130341Z 07004KT 21/10 A2995 RMK A01 T02080104  RH  051%=      5-min Rain = 0
KTAS 130342Z 07004KT 21/10 A2995 RMK A01 T02080104  RH  051%=      5-min Rain = 0
KTAS 130343Z 07004KT 21/11 A2995 RMK A01 T02080105  RH  052%=      5-min Rain = 0
KTAS 130344Z 08004KT 21/11 A2995 RMK A01 T02080105  RH  052%=      5-min Rain = 0
KTAS 130345Z 08003KT 21/10 A2995 RMK A01 T02070104  RH  052%=      5-min Rain = 0
KTAS 130346Z 08003KT 21/10 A2995 RMK A01 T02070104  RH  052%=      5-min Rain = 0
KTAS 130347Z 09002KT 21/10 A2995 RMK A01 T02050103  RH  052%=      5-min Rain = 0
KTAS 130348Z 10002KT 20/10 A2995 RMK A01 T02040103  RH  052%=      5-min Rain = 0
KTAS 130349Z 10002KT 20/10 A2995 RMK A01 T02010103  RH  053%=      5-min Rain = 0
KTAS 130350Z 09002KT 20/10 A2995 RMK A01 T01990103  RH  054%=      5-min Rain = 0
KTAS 130351Z 08002KT 20/10 A2995 RMK A01 T01980104  RH  054%=      5-min Rain = 0
KTAS 130352Z 07003KT 20/10 A2995 RMK A01 T01980104  RH  054%=      5-min Rain = 0
KTAS 130353Z 07003KT 20/10 A2995 RMK A01 T01980103  RH  054%=      5-min Rain = 0
KTAS 130354Z 07003KT 20/10 A2995 RMK A01 T01990103  RH  054%=      5-min Rain = 0
KTAS 130355Z 07003KT 20/10 A2995 RMK A01 T01990103  RH  054%=      5-min Rain = 0
KTAS 130356Z 07003KT 20/10 A2995 RMK A01 T02000103  RH  054%=      5-min Rain = 0
KTAS 130357Z 07003KT 20/10 A2995 RMK A01 T02000103  RH  053%=      5-min Rain = 0
KTAS 130358Z 07003KT 20/10 A2995 RMK A01 T02000103  RH  054%=      5-min Rain = 0
KTAS 130359Z 08003KT 20/10 A2995 RMK A01 T02000103  RH  054%=      5-min Rain = 0
KTAS 130400Z 07003KT 20/10 A2995 RMK A01 T02000103  RH  054%=      5-min Rain = 0
KTAS 130401Z 07004KT 20/10 A2995 RMK A01 T02000103  RH  054%=      5-min Rain = 0
KTAS 130402Z 08004KT 20/10 A2995 RMK A01 T02000104  RH  054%=      5-min Rain = 0
KTAS 130403Z 08004KT 20/10 A2995 RMK A01 T02000104  RH  054%=      5-min Rain = 0
KTAS 130404Z 08004KT 20/10 A2995 RMK A01 T02000104  RH  054%=      5-min Rain = 0
KTAS 130405Z 08004KT 20/10 A2995 RMK A01 T02000103  RH  054%=      5-min Rain = 0
KTAS 130406Z 08004KT 20/10 A2995 RMK A01 T02000104  RH  054%=      5-min Rain = 0
KTAS 130407Z 08005KT 20/10 A2995 RMK A01 T02000104  RH  054%=      5-min Rain = 0
KTAS 130408Z 08005KT 20/10 A2995 RMK A01 T02010104  RH  054%=      5-min Rain = 0
KTAS 130409Z 08005KT 20/10 A2995 RMK A01 T02000104  RH  054%=      5-min Rain = 0
KTAS 130410Z 08005KT 20/10 A2995 RMK A01 T01990103  RH  054%=      5-min Rain = 0
KTAS 130411Z 08005KT 20/10 A2995 RMK A01 T01970103  RH  055%=      5-min Rain = 0
KTAS 130412Z 08005KT 20/10 A2995 RMK A01 T01960103  RH  055%=      5-min Rain = 0
KTAS 130413Z 08005KT 20/10 A2995 RMK A01 T01960103  RH  055%=      5-min Rain = 0
KTAS 130414Z 08005KT 20/10 A2995 RMK A01 T01960104  RH  055%=      5-min Rain = 0
KTAS 130415Z 08006KT 20/10 A2995 RMK A01 T01960103  RH  055%=      5-min Rain = 0
KTAS 130416Z 08006KT 20/10 A2995 RMK A01 T01970103  RH  055%=      5-min Rain = 0
KTAS 130417Z 08006KT 20/10 A2995 RMK A01 T01970103  RH  055%=      5-min Rain = 0
KTAS 130418Z 08006KT 20/10 A2995 RMK A01 T01970103  RH  054%=      5-min Rain = 0
KTAS 130419Z 08006KT 20/10 A2995 RMK A01 T01980103  RH  054%=      5-min Rain = 0
KTAS 130420Z 08006KT 20/10 A2995 RMK A01 T01980103  RH  054%=      5-min Rain = 0
KTAS 130421Z 08006KT 20/10 A2995 RMK A01 T01980103  RH  054%=      5-min Rain = 0
KTAS 130422Z 08006KT 20/10 A2995 RMK A01 T01970103  RH  054%=      5-min Rain = 0
KTAS 130423Z 08006KT 20/10 A2995 RMK A01 T01970103  RH  054%=      5-min Rain = 0
KTAS 130424Z 08006KT 20/10 A2995 RMK A01 T01980103  RH  054%=      5-min Rain = 0
KTAS 130425Z 08006KT 20/10 A2995 RMK A01 T01980103  RH  054%=      5-min Rain = 0
KTAS 130426Z 08007KT 20/10 A2995 RMK A01 T01980103  RH  054%=      5-min Rain = 0
KTAS 130427Z 08007KT 20/10 A2995 RMK A01 T01970103  RH  054%=      5-min Rain = 0
KTAS 130428Z 08007KT 20/10 A2995 RMK A01 T01970103  RH  054%=      5-min Rain = 0
KTAS 130429Z 08007KT 20/10 A2995 RMK A01 T01980103  RH  054%=      5-min Rain = 0
KTAS 130430Z 08007KT 20/10 A2995 RMK A01 T01980103  RH  054%=      5-min Rain = 0
KTAS 130431Z 08007KT 20/10 A2995 RMK A01 T01970103  RH  054%=      5-min Rain = 0
KTAS 130432Z 07006KT 20/10 A2995 RMK A01 T01970102  RH  054%=      5-min Rain = 0
KTAS 130433Z 07006KT 20/10 A2995 RMK A01 T01960102  RH  055%=      5-min Rain = 0
KTAS 130434Z 08007KT 20/10 A2995 RMK A01 T01960102  RH  055%=      5-min Rain = 0
KTAS 130435Z 08007KT 20/10 A2995 RMK A01 T01960102  RH  054%=      5-min Rain = 0
KTAS 130436Z 08007KT 20/10 A2995 RMK A01 T01970101  RH  054%=      5-min Rain = 0
KTAS 130437Z 08007KT 20/10 A2995 RMK A01 T01990101  RH  053%=      5-min Rain = 0
KTAS 130438Z 08007KT 20/10 A2995 RMK A01 T02000101  RH  053%=      5-min Rain = 0
KTAS 130439Z 08007KT 20/10 A2995 RMK A01 T02000101  RH  053%=      5-min Rain = 0
KTAS 130440Z 08007KT 20/10 A2995 RMK A01 T02010101  RH  053%=      5-min Rain = 0
KTAS 130441Z 08006KT 20/10 A2995 RMK A01 T02020101  RH  052%=      5-min Rain = 0
KTAS 130442Z 09006KT 20/10 A2995 RMK A01 T02020101  RH  052%=      5-min Rain = 0
KTAS 130443Z 09006KT 20/10 A2995 RMK A01 T02010101  RH  052%=      5-min Rain = 0
KTAS 130444Z 09006KT 20/10 A2995 RMK A01 T02010101  RH  053%=      5-min Rain = 0
KTAS 130445Z 09006KT 20/10 A2995 RMK A01 T02010101  RH  053%=      5-min Rain = 0
KTAS 130446Z 09006KT 20/10 A2995 RMK A01 T02010101  RH  053%=      5-min Rain = 0
KTAS 130447Z 09006KT 20/10 A2995 RMK A01 T02010101  RH  053%=      5-min Rain = 0
KTAS 130448Z 09005KT 20/10 A2995 RMK A01 T02010101  RH  053%=      5-min Rain = 0
KTAS 130449Z 09006KT 20/10 A2995 RMK A01 T02010101  RH  053%=      5-min Rain = 0
KTAS 130450Z 09006KT 20/10 A2995 RMK A01 T02010101  RH  053%=      5-min Rain = 0
KTAS 130451Z 09007KT 20/10 A2995 RMK A01 T02000101  RH  053%=      5-min Rain = 0
KTAS 130452Z 09007KT 20/10 A2995 RMK A01 T02000101  RH  053%=      5-min Rain = 0
KTAS 130453Z 09007KT 20/10 A2995 RMK A01 T02000101  RH  053%=      5-min Rain = 0
KTAS 130454Z 09007KT 20/10 A2995 RMK A01 T02000101  RH  053%=      5-min Rain = 0
KTAS 130455Z 08007KT 20/10 A2995 RMK A01 T02010101  RH  053%=      5-min Rain = 0
KTAS 130456Z 08007KT 20/10 A2995 RMK A01 T02000101  RH  053%=      5-min Rain = 0
KTAS 130457Z 08006KT 20/10 A2995 RMK A01 T02000101  RH  053%=      5-min Rain = 0
KTAS 130458Z 08006KT 20/10 A2995 RMK A01 T01990102  RH  053%=      5-min Rain = 0
KTAS 130459Z 08007KT 20/10 A2995 RMK A01 T01990102  RH  053%=      5-min Rain = 0

Page generated in 0.1383 seconds.